<?xml version="1.0" encoding="UTF-8" standalone="no" ?>
<gpx xmlns="http://www.topografix.com/GPX/1/1" xmlns:xsi="http://www.w3.org/2001/XMLSchema-instance" xsi:schemaLocation="http://www.topografix.com/GPX/1/1 http://www.topografix.com/GPX/1/1/gpx.xsd" version="1.1" creator="VisuGPX - https://www.visugpx.com">
  <metadata>
    <name>virandeville le Vreto Pierreville</name>
  </metadata>
  <trk>
    <name><![CDATA[virandeville le Vreto Pierreville]]></name>
    <trkseg>
      <trkpt lat="49.56932" lon="-1.7273">
        <ele>61.574874</ele>
        <time>2021-10-25T16:40:06.717Z</time>
      </trkpt>
      <trkpt lat="49.56932" lon="-1.72715">
        <ele>61.574874</ele>
        <time>2021-10-25T16:40:08.153Z</time>
      </trkpt>
      <trkpt lat="49.56931" lon="-1.7269">
        <ele>61.574874</ele>
        <time>2021-10-25T16:40:10.537Z</time>
      </trkpt>
      <trkpt lat="49.5693" lon="-1.72664">
        <ele>61.574874</ele>
        <time>2021-10-25T16:40:12.999Z</time>
      </trkpt>
      <trkpt lat="49.56927" lon="-1.72621">
        <ele>61.574874</ele>
        <time>2021-10-25T16:40:17.189Z</time>
      </trkpt>
      <trkpt lat="49.56904" lon="-1.72601">
        <ele>61.437423</ele>
        <time>2021-10-25T16:40:20.920Z</time>
      </trkpt>
      <trkpt lat="49.5692" lon="-1.72571">
        <ele>60.963544</ele>
        <time>2021-10-25T16:40:24.283Z</time>
      </trkpt>
      <trkpt lat="49.56944" lon="-1.72525">
        <ele>60.258902</ele>
        <time>2021-10-25T16:40:29.167Z</time>
      </trkpt>
      <trkpt lat="49.56977" lon="-1.72459">
        <ele>59.259025</ele>
        <time>2021-10-25T16:40:35.954Z</time>
      </trkpt>
      <trkpt lat="49.57031" lon="-1.72362">
        <ele>57.410642</ele>
        <time>2021-10-25T16:40:45.837Z</time>
      </trkpt>
      <trkpt lat="49.57079" lon="-1.72272">
        <ele>55.145324</ele>
        <time>2021-10-25T16:40:54.636Z</time>
      </trkpt>
      <trkpt lat="49.57144" lon="-1.72147">
        <ele>52.118093</ele>
        <time>2021-10-25T16:41:06.581Z</time>
      </trkpt>
      <trkpt lat="49.5716" lon="-1.72118">
        <ele>51.487634</ele>
        <time>2021-10-25T16:41:09.316Z</time>
      </trkpt>
      <trkpt lat="49.57135" lon="-1.72081">
        <ele>50.571823</ele>
        <time>2021-10-25T16:41:16.600Z</time>
      </trkpt>
      <trkpt lat="49.57159" lon="-1.7201">
        <ele>49.197623</ele>
        <time>2021-10-25T16:41:27.751Z</time>
      </trkpt>
      <trkpt lat="49.57165" lon="-1.7197">
        <ele>48.498303</ele>
        <time>2021-10-25T16:41:33.493Z</time>
      </trkpt>
      <trkpt lat="49.57168" lon="-1.71957">
        <ele>48.26652</ele>
        <time>2021-10-25T16:41:35.384Z</time>
      </trkpt>
      <trkpt lat="49.57122" lon="-1.71876">
        <ele>48.098556</ele>
        <time>2021-10-25T16:41:51.214Z</time>
      </trkpt>
      <trkpt lat="49.57112" lon="-1.71875">
        <ele>48.095364</ele>
        <time>2021-10-25T16:41:53.592Z</time>
      </trkpt>
      <trkpt lat="49.57052" lon="-1.71771">
        <ele>48.066416</ele>
        <time>2021-10-25T16:42:15.993Z</time>
      </trkpt>
      <trkpt lat="49.57038" lon="-1.71714">
        <ele>48.840925</ele>
        <time>2021-10-25T16:42:26.013Z</time>
      </trkpt>
      <trkpt lat="49.57036" lon="-1.7168">
        <ele>49.569017</ele>
        <time>2021-10-25T16:42:31.836Z</time>
      </trkpt>
      <trkpt lat="49.56991" lon="-1.71674">
        <ele>51.007179</ele>
        <time>2021-10-25T16:42:40.990Z</time>
      </trkpt>
      <trkpt lat="49.56987" lon="-1.7167">
        <ele>51.16242</ele>
        <time>2021-10-25T16:42:41.957Z</time>
      </trkpt>
      <trkpt lat="49.56985" lon="-1.71662">
        <ele>51.349465</ele>
        <time>2021-10-25T16:42:43.123Z</time>
      </trkpt>
      <trkpt lat="49.56987" lon="-1.71652">
        <ele>51.565212</ele>
        <time>2021-10-25T16:42:44.425Z</time>
      </trkpt>
      <trkpt lat="49.56985" lon="-1.71662">
        <ele>51.780959</ele>
        <time>2021-10-25T16:42:45.681Z</time>
      </trkpt>
      <trkpt lat="49.56975" lon="-1.71664">
        <ele>52.080921</ele>
        <time>2021-10-25T16:42:48.038Z</time>
      </trkpt>
      <trkpt lat="49.56893" lon="-1.71585">
        <ele>55.662131</ele>
        <time>2021-10-25T16:43:09.345Z</time>
      </trkpt>
      <trkpt lat="49.56823" lon="-1.71467">
        <ele>60.133008</ele>
        <time>2021-10-25T16:43:32.699Z</time>
      </trkpt>
      <trkpt lat="49.56798" lon="-1.71435">
        <ele>61.534417</ele>
        <time>2021-10-25T16:43:39.757Z</time>
      </trkpt>
      <trkpt lat="49.56735" lon="-1.71438">
        <ele>63.958785</ele>
        <time>2021-10-25T16:43:57.053Z</time>
      </trkpt>
      <trkpt lat="49.56656" lon="-1.71429">
        <ele>66.969871</ele>
        <time>2021-10-25T16:44:18.463Z</time>
      </trkpt>
      <trkpt lat="49.56585" lon="-1.71437">
        <ele>69.409477</ele>
        <time>2021-10-25T16:44:37.614Z</time>
      </trkpt>
      <trkpt lat="49.56455" lon="-1.71494">
        <ele>73.315265</ele>
        <time>2021-10-25T16:45:12.711Z</time>
      </trkpt>
      <trkpt lat="49.56364" lon="-1.71504">
        <ele>75.756329</ele>
        <time>2021-10-25T16:45:36.399Z</time>
      </trkpt>
      <trkpt lat="49.56349" lon="-1.71509">
        <ele>76.172541</ele>
        <time>2021-10-25T16:45:40.502Z</time>
      </trkpt>
      <trkpt lat="49.5628" lon="-1.71533">
        <ele>78.013673</ele>
        <time>2021-10-25T16:45:58.775Z</time>
      </trkpt>
      <trkpt lat="49.56193" lon="-1.71565">
        <ele>79.916005</ele>
        <time>2021-10-25T16:46:21.890Z</time>
      </trkpt>
      <trkpt lat="49.56181" lon="-1.71573">
        <ele>80.18135</ele>
        <time>2021-10-25T16:46:25.317Z</time>
      </trkpt>
      <trkpt lat="49.56131" lon="-1.7155">
        <ele>81.242685</ele>
        <time>2021-10-25T16:46:34.718Z</time>
      </trkpt>
      <trkpt lat="49.56088" lon="-1.71434">
        <ele>82.341411</ele>
        <time>2021-10-25T16:46:50.117Z</time>
      </trkpt>
      <trkpt lat="49.56055" lon="-1.71376">
        <ele>82.652583</ele>
        <time>2021-10-25T16:46:58.266Z</time>
      </trkpt>
      <trkpt lat="49.56048" lon="-1.71369">
        <ele>82.698722</ele>
        <time>2021-10-25T16:46:59.455Z</time>
      </trkpt>
      <trkpt lat="49.56036" lon="-1.71357">
        <ele>82.788839</ele>
        <time>2021-10-25T16:47:01.787Z</time>
      </trkpt>
      <trkpt lat="49.56017" lon="-1.71326">
        <ele>82.959683</ele>
        <time>2021-10-25T16:47:06.085Z</time>
      </trkpt>
      <trkpt lat="49.55975" lon="-1.71215">
        <ele>82.735444</ele>
        <time>2021-10-25T16:47:18.952Z</time>
      </trkpt>
      <trkpt lat="49.55957" lon="-1.71185">
        <ele>82.506208</ele>
        <time>2021-10-25T16:47:22.803Z</time>
      </trkpt>
      <trkpt lat="49.55898" lon="-1.71146">
        <ele>81.951338</ele>
        <time>2021-10-25T16:47:31.437Z</time>
      </trkpt>
      <trkpt lat="49.55891" lon="-1.71126">
        <ele>81.822611</ele>
        <time>2021-10-25T16:47:33.346Z</time>
      </trkpt>
      <trkpt lat="49.55889" lon="-1.7109">
        <ele>81.622907</ele>
        <time>2021-10-25T16:47:36.281Z</time>
      </trkpt>
      <trkpt lat="49.55895" lon="-1.71043">
        <ele>80.773502</ele>
        <time>2021-10-25T16:47:40.161Z</time>
      </trkpt>
      <trkpt lat="49.55892" lon="-1.70946">
        <ele>79.035445</ele>
        <time>2021-10-25T16:47:47.656Z</time>
      </trkpt>
      <trkpt lat="49.55915" lon="-1.70824">
        <ele>76.766094</ele>
        <time>2021-10-25T16:47:57.039Z</time>
      </trkpt>
      <trkpt lat="49.55917" lon="-1.70812">
        <ele>76.516067</ele>
        <time>2021-10-25T16:47:57.977Z</time>
      </trkpt>
      <trkpt lat="49.55911" lon="-1.70794">
        <ele>76.087333</ele>
        <time>2021-10-25T16:47:59.439Z</time>
      </trkpt>
      <trkpt lat="49.55799" lon="-1.7073">
        <ele>72.132344</ele>
        <time>2021-10-25T16:48:13.017Z</time>
      </trkpt>
      <trkpt lat="49.55705" lon="-1.70638">
        <ele>69.620611</ele>
        <time>2021-10-25T16:48:25.987Z</time>
      </trkpt>
      <trkpt lat="49.55694" lon="-1.70593">
        <ele>69.120605</ele>
        <time>2021-10-25T16:48:29.846Z</time>
      </trkpt>
      <trkpt lat="49.55671" lon="-1.70561">
        <ele>68.616599</ele>
        <time>2021-10-25T16:48:33.970Z</time>
      </trkpt>
      <trkpt lat="49.55633" lon="-1.70475">
        <ele>68.152152</ele>
        <time>2021-10-25T16:48:43.942Z</time>
      </trkpt>
      <trkpt lat="49.55613" lon="-1.70415">
        <ele>68.973307</ele>
        <time>2021-10-25T16:48:51.358Z</time>
      </trkpt>
      <trkpt lat="49.55611" lon="-1.70393">
        <ele>69.243509</ele>
        <time>2021-10-25T16:48:53.910Z</time>
      </trkpt>
      <trkpt lat="49.555" lon="-1.70618">
        <ele>73.371263</ele>
        <time>2021-10-25T16:49:42.018Z</time>
      </trkpt>
      <trkpt lat="49.55329" lon="-1.70985">
        <ele>81.038345</ele>
        <time>2021-10-25T16:50:58.018Z</time>
      </trkpt>
      <trkpt lat="49.55331" lon="-1.71002">
        <ele>81.275607</ele>
        <time>2021-10-25T16:51:00.932Z</time>
      </trkpt>
      <trkpt lat="49.5528" lon="-1.70947">
        <ele>82.604222</ele>
        <time>2021-10-25T16:51:31.898Z</time>
      </trkpt>
      <trkpt lat="49.55241" lon="-1.70908">
        <ele>83.585643</ele>
        <time>2021-10-25T16:51:54.773Z</time>
      </trkpt>
      <trkpt lat="49.55208" lon="-1.70832">
        <ele>84.662692</ele>
        <time>2021-10-25T16:52:24.117Z</time>
      </trkpt>
      <trkpt lat="49.55202" lon="-1.70911">
        <ele>85.000926</ele>
        <time>2021-10-25T16:52:32.814Z</time>
      </trkpt>
      <trkpt lat="49.55195" lon="-1.70962">
        <ele>85.221724</ele>
        <time>2021-10-25T16:52:38.295Z</time>
      </trkpt>
      <trkpt lat="49.55183" lon="-1.71015">
        <ele>85.46223</ele>
        <time>2021-10-25T16:52:44.156Z</time>
      </trkpt>
      <trkpt lat="49.55131" lon="-1.70993">
        <ele>85.758734</ele>
        <time>2021-10-25T16:52:57.047Z</time>
      </trkpt>
      <trkpt lat="49.55118" lon="-1.70987">
        <ele>85.753324</ele>
        <time>2021-10-25T16:53:00.350Z</time>
      </trkpt>
      <trkpt lat="49.54963" lon="-1.70957">
        <ele>85.691783</ele>
        <time>2021-10-25T16:53:37.739Z</time>
      </trkpt>
      <trkpt lat="49.54905" lon="-1.70902">
        <ele>85.932055</ele>
        <time>2021-10-25T16:53:54.241Z</time>
      </trkpt>
      <trkpt lat="49.54744" lon="-1.70841">
        <ele>87.137883</ele>
        <time>2021-10-25T16:54:34.910Z</time>
      </trkpt>
      <trkpt lat="49.54579" lon="-1.7079">
        <ele>89.970907</ele>
        <time>2021-10-25T16:55:18.113Z</time>
      </trkpt>
      <trkpt lat="49.54406" lon="-1.70781">
        <ele>93.357387</ele>
        <time>2021-10-25T16:56:02.476Z</time>
      </trkpt>
      <trkpt lat="49.54169" lon="-1.70713">
        <ele>96.267386</ele>
        <time>2021-10-25T16:57:03.006Z</time>
      </trkpt>
      <trkpt lat="49.54125" lon="-1.70707">
        <ele>96.647515</ele>
        <time>2021-10-25T16:57:14.015Z</time>
      </trkpt>
      <trkpt lat="49.54094" lon="-1.70713">
        <ele>96.910333</ele>
        <time>2021-10-25T16:57:21.617Z</time>
      </trkpt>
      <trkpt lat="49.53919" lon="-1.70649">
        <ele>97.591098</ele>
        <time>2021-10-25T16:58:05.598Z</time>
      </trkpt>
      <trkpt lat="49.53827" lon="-1.70612">
        <ele>98.288113</ele>
        <time>2021-10-25T16:58:28.997Z</time>
      </trkpt>
      <trkpt lat="49.53802" lon="-1.70603">
        <ele>98.490246</ele>
        <time>2021-10-25T16:58:35.477Z</time>
      </trkpt>
      <trkpt lat="49.53663" lon="-1.70554">
        <ele>99.722261</ele>
        <time>2021-10-25T16:59:11.200Z</time>
      </trkpt>
      <trkpt lat="49.53546" lon="-1.70546">
        <ele>100.785017</ele>
        <time>2021-10-25T16:59:40.418Z</time>
      </trkpt>
      <trkpt lat="49.53248" lon="-1.70391">
        <ele>103.082561</ele>
        <time>2021-10-25T17:00:57.868Z</time>
      </trkpt>
      <trkpt lat="49.53076" lon="-1.70316">
        <ele>106.449341</ele>
        <time>2021-10-25T17:01:43.603Z</time>
      </trkpt>
      <trkpt lat="49.53035" lon="-1.70284">
        <ele>107.383096</ele>
        <time>2021-10-25T17:01:55.701Z</time>
      </trkpt>
      <trkpt lat="49.52916" lon="-1.70261">
        <ele>109.272819</ele>
        <time>2021-10-25T17:02:26.094Z</time>
      </trkpt>
      <trkpt lat="49.52796" lon="-1.70224">
        <ele>110.3306</ele>
        <time>2021-10-25T17:02:56.445Z</time>
      </trkpt>
      <trkpt lat="49.52737" lon="-1.70185">
        <ele>110.574516</ele>
        <time>2021-10-25T17:03:12.138Z</time>
      </trkpt>
      <trkpt lat="49.52686" lon="-1.7013">
        <ele>110.753494</ele>
        <time>2021-10-25T17:03:26.986Z</time>
      </trkpt>
      <trkpt lat="49.52604" lon="-1.70065">
        <ele>110.846542</ele>
        <time>2021-10-25T17:03:49.118Z</time>
      </trkpt>
      <trkpt lat="49.52575" lon="-1.70078">
        <ele>110.877289</ele>
        <time>2021-10-25T17:03:56.420Z</time>
      </trkpt>
      <trkpt lat="49.52387" lon="-1.70224">
        <ele>111.873643</ele>
        <time>2021-10-25T17:04:48.253Z</time>
      </trkpt>
      <trkpt lat="49.52242" lon="-1.70343">
        <ele>113.30731</ele>
        <time>2021-10-25T17:05:29.360Z</time>
      </trkpt>
      <trkpt lat="49.5221" lon="-1.70336">
        <ele>113.510174</ele>
        <time>2021-10-25T17:05:34.542Z</time>
      </trkpt>
      <trkpt lat="49.52142" lon="-1.70313">
        <ele>113.485646</ele>
        <time>2021-10-25T17:05:44.986Z</time>
      </trkpt>
      <trkpt lat="49.52113" lon="-1.703">
        <ele>113.475324</ele>
        <time>2021-10-25T17:05:49.516Z</time>
      </trkpt>
      <trkpt lat="49.52076" lon="-1.70267">
        <ele>113.460388</ele>
        <time>2021-10-25T17:05:55.661Z</time>
      </trkpt>
      <trkpt lat="49.52014" lon="-1.70267">
        <ele>113.703737</ele>
        <time>2021-10-25T17:06:05.228Z</time>
      </trkpt>
      <trkpt lat="49.52002" lon="-1.7026">
        <ele>113.794577</ele>
        <time>2021-10-25T17:06:06.867Z</time>
      </trkpt>
      <trkpt lat="49.51997" lon="-1.70285">
        <ele>113.92201</ele>
        <time>2021-10-25T17:06:11.266Z</time>
      </trkpt>
      <trkpt lat="49.5199" lon="-1.70303">
        <ele>114.023324</ele>
        <time>2021-10-25T17:06:14.591Z</time>
      </trkpt>
      <trkpt lat="49.51979" lon="-1.70313">
        <ele>114.113463</ele>
        <time>2021-10-25T17:06:17.648Z</time>
      </trkpt>
      <trkpt lat="49.51908" lon="-1.70355">
        <ele>114.671213</ele>
        <time>2021-10-25T17:06:36.806Z</time>
      </trkpt>
      <trkpt lat="49.51875" lon="-1.7037">
        <ele>114.954224</ele>
        <time>2021-10-25T17:06:45.413Z</time>
      </trkpt>
      <trkpt lat="49.51824" lon="-1.70378">
        <ele>115.417503</ele>
        <time>2021-10-25T17:06:58.593Z</time>
      </trkpt>
      <trkpt lat="49.5175" lon="-1.70351">
        <ele>116.096063</ele>
        <time>2021-10-25T17:07:17.513Z</time>
      </trkpt>
      <trkpt lat="49.51682" lon="-1.70355">
        <ele>115.963311</ele>
        <time>2021-10-25T17:07:33.887Z</time>
      </trkpt>
      <trkpt lat="49.51619" lon="-1.70344">
        <ele>115.259309</ele>
        <time>2021-10-25T17:07:48.429Z</time>
      </trkpt>
      <trkpt lat="49.51528" lon="-1.70307">
        <ele>114.194757</ele>
        <time>2021-10-25T17:08:09.263Z</time>
      </trkpt>
      <trkpt lat="49.51506" lon="-1.7029">
        <ele>113.873519</ele>
        <time>2021-10-25T17:08:14.810Z</time>
      </trkpt>
      <trkpt lat="49.515" lon="-1.70279">
        <ele>113.753351</ele>
        <time>2021-10-25T17:08:16.910Z</time>
      </trkpt>
      <trkpt lat="49.51478" lon="-1.70261">
        <ele>113.441269</ele>
        <time>2021-10-25T17:08:22.372Z</time>
      </trkpt>
      <trkpt lat="49.51456" lon="-1.7026">
        <ele>113.147944</ele>
        <time>2021-10-25T17:08:27.552Z</time>
      </trkpt>
      <trkpt lat="49.51448" lon="-1.70268">
        <ele>113.029677</ele>
        <time>2021-10-25T17:08:29.639Z</time>
      </trkpt>
      <trkpt lat="49.5143" lon="-1.7031">
        <ele>112.611541</ele>
        <time>2021-10-25T17:08:37.078Z</time>
      </trkpt>
      <trkpt lat="49.5142" lon="-1.7032">
        <ele>112.458192</ele>
        <time>2021-10-25T17:08:39.818Z</time>
      </trkpt>
      <trkpt lat="49.5141" lon="-1.70326">
        <ele>112.31593</ele>
        <time>2021-10-25T17:08:41.408Z</time>
      </trkpt>
      <trkpt lat="49.51332" lon="-1.70331">
        <ele>112.680119</ele>
        <time>2021-10-25T17:08:53.128Z</time>
      </trkpt>
      <trkpt lat="49.51234" lon="-1.70279">
        <ele>113.780539</ele>
        <time>2021-10-25T17:09:12.655Z</time>
      </trkpt>
      <trkpt lat="49.51226" lon="-1.70274">
        <ele>113.875284</ele>
        <time>2021-10-25T17:09:14.149Z</time>
      </trkpt>
      <trkpt lat="49.51218" lon="-1.70269">
        <ele>113.959079</ele>
        <time>2021-10-25T17:09:16.227Z</time>
      </trkpt>
      <trkpt lat="49.51192" lon="-1.70259">
        <ele>114.778574</ele>
        <time>2021-10-25T17:09:23.338Z</time>
      </trkpt>
      <trkpt lat="49.51184" lon="-1.70251">
        <ele>115.064886</ele>
        <time>2021-10-25T17:09:25.778Z</time>
      </trkpt>
      <trkpt lat="49.51178" lon="-1.70244">
        <ele>115.302776</ele>
        <time>2021-10-25T17:09:27.761Z</time>
      </trkpt>
      <trkpt lat="49.51175" lon="-1.7024">
        <ele>115.424702</ele>
        <time>2021-10-25T17:09:29.211Z</time>
      </trkpt>
      <trkpt lat="49.51162" lon="-1.70224">
        <ele>115.926054</ele>
        <time>2021-10-25T17:09:33.362Z</time>
      </trkpt>
      <trkpt lat="49.51106" lon="-1.70197">
        <ele>117.738183</ele>
        <time>2021-10-25T17:09:49.274Z</time>
      </trkpt>
      <trkpt lat="49.50916" lon="-1.70151">
        <ele>123.146221</ele>
        <time>2021-10-25T17:10:39.988Z</time>
      </trkpt>
      <trkpt lat="49.50891" lon="-1.7015">
        <ele>123.829601</ele>
        <time>2021-10-25T17:10:46.415Z</time>
      </trkpt>
      <trkpt lat="49.50888" lon="-1.70151">
        <ele>123.916085</ele>
        <time>2021-10-25T17:10:47.253Z</time>
      </trkpt>
      <trkpt lat="49.50859" lon="-1.70018">
        <ele>124.930103</ele>
        <time>2021-10-25T17:11:03.163Z</time>
      </trkpt>
      <trkpt lat="49.50836" lon="-1.69959">
        <ele>125.269561</ele>
        <time>2021-10-25T17:11:10.339Z</time>
      </trkpt>
      <trkpt lat="49.50791" lon="-1.69907">
        <ele>125.692395</ele>
        <time>2021-10-25T17:11:19.265Z</time>
      </trkpt>
      <trkpt lat="49.50772" lon="-1.69872">
        <ele>125.661463</ele>
        <time>2021-10-25T17:11:23.817Z</time>
      </trkpt>
      <trkpt lat="49.50766" lon="-1.69863">
        <ele>125.638164</ele>
        <time>2021-10-25T17:11:25.145Z</time>
      </trkpt>
      <trkpt lat="49.50749" lon="-1.6987">
        <ele>125.588886</ele>
        <time>2021-10-25T17:11:27.699Z</time>
      </trkpt>
      <trkpt lat="49.50702" lon="-1.69874">
        <ele>125.457289</ele>
        <time>2021-10-25T17:11:34.750Z</time>
      </trkpt>
      <trkpt lat="49.5069" lon="-1.69861">
        <ele>125.416056</ele>
        <time>2021-10-25T17:11:36.958Z</time>
      </trkpt>
      <trkpt lat="49.50501" lon="-1.69525">
        <ele>124.229909</ele>
        <time>2021-10-25T17:12:17.924Z</time>
      </trkpt>
      <trkpt lat="49.50455" lon="-1.69471">
        <ele>124.193363</ele>
        <time>2021-10-25T17:12:26.578Z</time>
      </trkpt>
      <trkpt lat="49.5042" lon="-1.69427">
        <ele>124.165497</ele>
        <time>2021-10-25T17:12:33.699Z</time>
      </trkpt>
      <trkpt lat="49.50388" lon="-1.6938">
        <ele>124.24316</ele>
        <time>2021-10-25T17:12:40.709Z</time>
      </trkpt>
      <trkpt lat="49.50359" lon="-1.69338">
        <ele>124.68593</ele>
        <time>2021-10-25T17:12:47.131Z</time>
      </trkpt>
      <trkpt lat="49.50356" lon="-1.69333">
        <ele>124.74338</ele>
        <time>2021-10-25T17:12:48.033Z</time>
      </trkpt>
      <trkpt lat="49.50344" lon="-1.69308">
        <ele>124.965519</ele>
        <time>2021-10-25T17:12:51.356Z</time>
      </trkpt>
      <trkpt lat="49.50275" lon="-1.69043">
        <ele>127.213216</ele>
        <time>2021-10-25T17:13:24.254Z</time>
      </trkpt>
      <trkpt lat="49.50267" lon="-1.68984">
        <ele>127.746455</ele>
        <time>2021-10-25T17:13:31.366Z</time>
      </trkpt>
      <trkpt lat="49.50265" lon="-1.68964">
        <ele>127.915978</ele>
        <time>2021-10-25T17:13:33.700Z</time>
      </trkpt>
      <trkpt lat="49.50263" lon="-1.68952">
        <ele>128.025462</ele>
        <time>2021-10-25T17:13:35.013Z</time>
      </trkpt>
      <trkpt lat="49.50265" lon="-1.68964">
        <ele>128.134945</ele>
        <time>2021-10-25T17:13:36.412Z</time>
      </trkpt>
      <trkpt lat="49.50172" lon="-1.68946">
        <ele>128.764959</ele>
        <time>2021-10-25T17:13:52.957Z</time>
      </trkpt>
      <trkpt lat="49.50165" lon="-1.68905">
        <ele>128.852341</ele>
        <time>2021-10-25T17:13:59.674Z</time>
      </trkpt>
      <trkpt lat="49.50081" lon="-1.68608">
        <ele>129.174143</ele>
        <time>2021-10-25T17:14:50.148Z</time>
      </trkpt>
      <trkpt lat="49.49998" lon="-1.68392">
        <ele>130.535708</ele>
        <time>2021-10-25T17:15:30.489Z</time>
      </trkpt>
      <trkpt lat="49.50004" lon="-1.68376">
        <ele>130.694322</ele>
        <time>2021-10-25T17:15:32.776Z</time>
      </trkpt>
      <trkpt lat="49.49998" lon="-1.68392">
        <ele>130.852935</ele>
        <time>2021-10-25T17:15:34.867Z</time>
      </trkpt>
      <trkpt lat="49.49942" lon="-1.68257">
        <ele>133.086934</ele>
        <time>2021-10-25T17:16:01.716Z</time>
      </trkpt>
      <trkpt lat="49.49844" lon="-1.68163">
        <ele>136.565921</ele>
        <time>2021-10-25T17:16:32.428Z</time>
      </trkpt>
      <trkpt lat="49.49737" lon="-1.68041">
        <ele>140.820945</ele>
        <time>2021-10-25T17:17:07.812Z</time>
      </trkpt>
      <trkpt lat="49.49681" lon="-1.67992">
        <ele>142.835031</ele>
        <time>2021-10-25T17:17:24.714Z</time>
      </trkpt>
      <trkpt lat="49.49576" lon="-1.67949">
        <ele>145.146751</ele>
        <time>2021-10-25T17:17:52.940Z</time>
      </trkpt>
      <trkpt lat="49.49498" lon="-1.67907">
        <ele>146.55212</ele>
        <time>2021-10-25T17:18:13.902Z</time>
      </trkpt>
      <trkpt lat="49.49406" lon="-1.67813">
        <ele>146.549653</ele>
        <time>2021-10-25T17:18:40.632Z</time>
      </trkpt>
      <trkpt lat="49.49306" lon="-1.67782">
        <ele>145.734384</ele>
        <time>2021-10-25T17:19:04.451Z</time>
      </trkpt>
      <trkpt lat="49.49197" lon="-1.67776">
        <ele>143.911656</ele>
        <time>2021-10-25T17:19:28.778Z</time>
      </trkpt>
      <trkpt lat="49.49156" lon="-1.67769">
        <ele>142.981078</ele>
        <time>2021-10-25T17:19:37.586Z</time>
      </trkpt>
      <trkpt lat="49.49151" lon="-1.67726">
        <ele>142.151615</ele>
        <time>2021-10-25T17:19:40.993Z</time>
      </trkpt>
      <trkpt lat="49.49125" lon="-1.67733">
        <ele>141.369689</ele>
        <time>2021-10-25T17:19:44.097Z</time>
      </trkpt>
      <trkpt lat="49.49059" lon="-1.67762">
        <ele>139.368506</ele>
        <time>2021-10-25T17:19:51.983Z</time>
      </trkpt>
      <trkpt lat="49.49" lon="-1.67778">
        <ele>137.614966</ele>
        <time>2021-10-25T17:19:58.835Z</time>
      </trkpt>
      <trkpt lat="49.48941" lon="-1.67785">
        <ele>135.860413</ele>
        <time>2021-10-25T17:20:05.608Z</time>
      </trkpt>
      <trkpt lat="49.48869" lon="-1.67771">
        <ele>133.744177</ele>
        <time>2021-10-25T17:20:13.992Z</time>
      </trkpt>
      <trkpt lat="49.48779" lon="-1.67735">
        <ele>131.971245</ele>
        <time>2021-10-25T17:20:25.476Z</time>
      </trkpt>
      <trkpt lat="49.48703" lon="-1.6773">
        <ele>130.813476</ele>
        <time>2021-10-25T17:20:35.782Z</time>
      </trkpt>
      <trkpt lat="49.4865" lon="-1.67708">
        <ele>129.816514</ele>
        <time>2021-10-25T17:20:43.206Z</time>
      </trkpt>
      <trkpt lat="49.48623" lon="-1.67728">
        <ele>129.105356</ele>
        <time>2021-10-25T17:20:47.114Z</time>
      </trkpt>
      <trkpt lat="49.48545" lon="-1.67736">
        <ele>127.282437</ele>
        <time>2021-10-25T17:20:57.187Z</time>
      </trkpt>
      <trkpt lat="49.48538" lon="-1.67735">
        <ele>127.112767</ele>
        <time>2021-10-25T17:20:57.987Z</time>
      </trkpt>
      <trkpt lat="49.48536" lon="-1.6775">
        <ele>126.875961</ele>
        <time>2021-10-25T17:20:59.010Z</time>
      </trkpt>
      <trkpt lat="49.48513" lon="-1.67941">
        <ele>121.047319</ele>
        <time>2021-10-25T17:21:12.819Z</time>
      </trkpt>
      <trkpt lat="49.48513" lon="-1.67943">
        <ele>120.970318</ele>
        <time>2021-10-25T17:21:12.945Z</time>
      </trkpt>
      <trkpt lat="49.48512" lon="-1.6796">
        <ele>120.384485</ele>
        <time>2021-10-25T17:21:14.016Z</time>
      </trkpt>
      <trkpt lat="49.48505" lon="-1.67968">
        <ele>119.888661</ele>
        <time>2021-10-25T17:21:15.617Z</time>
      </trkpt>
      <trkpt lat="49.48477" lon="-1.68019">
        <ele>117.467783</ele>
        <time>2021-10-25T17:21:23.914Z</time>
      </trkpt>
      <trkpt lat="49.4842" lon="-1.68092">
        <ele>112.357801</ele>
        <time>2021-10-25T17:21:37.338Z</time>
      </trkpt>
      <trkpt lat="49.48367" lon="-1.68191">
        <ele>105.969094</ele>
        <time>2021-10-25T17:21:52.142Z</time>
      </trkpt>
      <trkpt lat="49.48343" lon="-1.68222">
        <ele>103.600588</ele>
        <time>2021-10-25T17:21:57.689Z</time>
      </trkpt>
      <trkpt lat="49.48337" lon="-1.6824">
        <ele>102.578424</ele>
        <time>2021-10-25T17:22:00.063Z</time>
      </trkpt>
      <trkpt lat="49.48359" lon="-1.68311">
        <ele>98.802205</ele>
        <time>2021-10-25T17:22:09.183Z</time>
      </trkpt>
      <trkpt lat="49.4836" lon="-1.6833">
        <ele>97.865703</ele>
        <time>2021-10-25T17:22:11.349Z</time>
      </trkpt>
      <trkpt lat="49.48353" lon="-1.68381">
        <ele>95.34988</ele>
        <time>2021-10-25T17:22:17.448Z</time>
      </trkpt>
      <trkpt lat="49.48329" lon="-1.68497">
        <ele>89.483295</ele>
        <time>2021-10-25T17:22:31.767Z</time>
      </trkpt>
      <trkpt lat="49.48318" lon="-1.68589">
        <ele>86.176515</ele>
        <time>2021-10-25T17:22:43.005Z</time>
      </trkpt>
      <trkpt lat="49.48321" lon="-1.68787">
        <ele>79.5089</ele>
        <time>2021-10-25T17:23:08.149Z</time>
      </trkpt>
      <trkpt lat="49.48191" lon="-1.68825">
        <ele>74.484694</ele>
        <time>2021-10-25T17:23:34.708Z</time>
      </trkpt>
      <trkpt lat="49.48191" lon="-1.68991">
        <ele>70.704109</ele>
        <time>2021-10-25T17:23:56.795Z</time>
      </trkpt>
      <trkpt lat="49.48173" lon="-1.69001">
        <ele>70.094596</ele>
        <time>2021-10-25T17:24:00.608Z</time>
      </trkpt>
      <trkpt lat="49.4812" lon="-1.69075">
        <ele>67.743515</ele>
        <time>2021-10-25T17:24:15.369Z</time>
      </trkpt>
      <trkpt lat="49.48053" lon="-1.69094">
        <ele>66.071703</ele>
        <time>2021-10-25T17:24:29.588Z</time>
      </trkpt>
      <trkpt lat="49.48044" lon="-1.69151">
        <ele>65.326002</ele>
        <time>2021-10-25T17:24:37.717Z</time>
      </trkpt>
      <trkpt lat="49.47958" lon="-1.692">
        <ele>63.545567</ele>
        <time>2021-10-25T17:24:58.157Z</time>
      </trkpt>
      <trkpt lat="49.47905" lon="-1.69238">
        <ele>63.013045</ele>
        <time>2021-10-25T17:25:12.394Z</time>
      </trkpt>
      <trkpt lat="49.47895" lon="-1.69299">
        <ele>62.708142</ele>
        <time>2021-10-25T17:25:22.108Z</time>
      </trkpt>
      <trkpt lat="49.47886" lon="-1.69299">
        <ele>62.638255</ele>
        <time>2021-10-25T17:25:24.469Z</time>
      </trkpt>
      <trkpt lat="49.47878" lon="-1.69332">
        <ele>62.466998</ele>
        <time>2021-10-25T17:25:29.549Z</time>
      </trkpt>
      <trkpt lat="49.47877" lon="-1.69363">
        <ele>62.314656</ele>
        <time>2021-10-25T17:25:34.366Z</time>
      </trkpt>
      <trkpt lat="49.47871" lon="-1.69373">
        <ele>62.24567</ele>
        <time>2021-10-25T17:25:35.543Z</time>
      </trkpt>
      <trkpt lat="49.47869" lon="-1.69403">
        <ele>62.100015</ele>
        <time>2021-10-25T17:25:38.445Z</time>
      </trkpt>
      <trkpt lat="49.47875" lon="-1.69447">
        <ele>61.490485</ele>
        <time>2021-10-25T17:25:42.067Z</time>
      </trkpt>
      <trkpt lat="49.47876" lon="-1.69454">
        <ele>61.378746</ele>
        <time>2021-10-25T17:25:42.965Z</time>
      </trkpt>
      <trkpt lat="49.47863" lon="-1.69441">
        <ele>60.985514</ele>
        <time>2021-10-25T17:25:46.097Z</time>
      </trkpt>
      <trkpt lat="49.47791" lon="-1.69384">
        <ele>58.955067</ele>
        <time>2021-10-25T17:26:03.447Z</time>
      </trkpt>
      <trkpt lat="49.47761" lon="-1.69372">
        <ele>58.184212</ele>
        <time>2021-10-25T17:26:09.603Z</time>
      </trkpt>
      <trkpt lat="49.4768" lon="-1.69383">
        <ele>56.924788</ele>
        <time>2021-10-25T17:26:26.625Z</time>
      </trkpt>
      <trkpt lat="49.47638" lon="-1.69422">
        <ele>56.401653</ele>
        <time>2021-10-25T17:26:38.109Z</time>
      </trkpt>
      <trkpt lat="49.47609" lon="-1.69368">
        <ele>55.910976</ele>
        <time>2021-10-25T17:26:49.215Z</time>
      </trkpt>
      <trkpt lat="49.4758" lon="-1.69293">
        <ele>55.590948</ele>
        <time>2021-10-25T17:27:03.006Z</time>
      </trkpt>
      <trkpt lat="49.47543" lon="-1.69215">
        <ele>55.602615</ele>
        <time>2021-10-25T17:27:18.520Z</time>
      </trkpt>
      <trkpt lat="49.4751" lon="-1.69294">
        <ele>55.613981</ele>
        <time>2021-10-25T17:27:33.198Z</time>
      </trkpt>
      <trkpt lat="49.47463" lon="-1.69371">
        <ele>55.076787</ele>
        <time>2021-10-25T17:27:49.580Z</time>
      </trkpt>
      <trkpt lat="49.47409" lon="-1.69438">
        <ele>54.121273</ele>
        <time>2021-10-25T17:28:04.722Z</time>
      </trkpt>
      <trkpt lat="49.47377" lon="-1.69471">
        <ele>53.591604</ele>
        <time>2021-10-25T17:28:13.298Z</time>
      </trkpt>
      <trkpt lat="49.47307" lon="-1.69521">
        <ele>53.042866</ele>
        <time>2021-10-25T17:28:30.900Z</time>
      </trkpt>
      <trkpt lat="49.47263" lon="-1.69538">
        <ele>52.945496</ele>
        <time>2021-10-25T17:28:41.681Z</time>
      </trkpt>
      <trkpt lat="49.47233" lon="-1.6955">
        <ele>52.877423</ele>
        <time>2021-10-25T17:28:49.265Z</time>
      </trkpt>
      <trkpt lat="49.47188" lon="-1.69551">
        <ele>52.781512</ele>
        <time>2021-10-25T17:29:00.164Z</time>
      </trkpt>
      <trkpt lat="49.47145" lon="-1.69568">
        <ele>53.580507</ele>
        <time>2021-10-25T17:29:11.451Z</time>
      </trkpt>
      <trkpt lat="49.47104" lon="-1.69575">
        <ele>54.698862</ele>
        <time>2021-10-25T17:29:21.992Z</time>
      </trkpt>
      <trkpt lat="49.47031" lon="-1.69624">
        <ele>56.900948</ele>
        <time>2021-10-25T17:29:43.256Z</time>
      </trkpt>
      <trkpt lat="49.47013" lon="-1.69644">
        <ele>57.506269</ele>
        <time>2021-10-25T17:29:49.303Z</time>
      </trkpt>
      <trkpt lat="49.46977" lon="-1.69616">
        <ele>58.748765</ele>
        <time>2021-10-25T17:29:57.880Z</time>
      </trkpt>
      <trkpt lat="49.4683" lon="-1.69792">
        <ele>63.634936</ele>
        <time>2021-10-25T17:30:46.726Z</time>
      </trkpt>
      <trkpt lat="49.4667" lon="-1.69969">
        <ele>63.819817</ele>
        <time>2021-10-25T17:31:34.771Z</time>
      </trkpt>
      <trkpt lat="49.46411" lon="-1.70222">
        <ele>55.665241</ele>
        <time>2021-10-25T17:32:38.853Z</time>
      </trkpt>
      <trkpt lat="49.46397" lon="-1.70223">
        <ele>55.110657</ele>
        <time>2021-10-25T17:32:41.442Z</time>
      </trkpt>
      <trkpt lat="49.4632" lon="-1.70289">
        <ele>51.601274</ele>
        <time>2021-10-25T17:32:58.366Z</time>
      </trkpt>
      <trkpt lat="49.46281" lon="-1.70293">
        <ele>50.038008</ele>
        <time>2021-10-25T17:33:06.115Z</time>
      </trkpt>
      <trkpt lat="49.46188" lon="-1.7037">
        <ele>47.892054</ele>
        <time>2021-10-25T17:33:29.112Z</time>
      </trkpt>
      <trkpt lat="49.46181" lon="-1.70352">
        <ele>47.746018</ele>
        <time>2021-10-25T17:33:31.419Z</time>
      </trkpt>
      <trkpt lat="49.46186" lon="-1.70262">
        <ele>47.103284</ele>
        <time>2021-10-25T17:33:40.146Z</time>
      </trkpt>
      <trkpt lat="49.46203" lon="-1.70172">
        <ele>46.572577</ele>
        <time>2021-10-25T17:33:49.964Z</time>
      </trkpt>
      <trkpt lat="49.46146" lon="-1.70129">
        <ele>46.231223</ele>
        <time>2021-10-25T17:34:00.152Z</time>
      </trkpt>
      <trkpt lat="49.4609" lon="-1.7023">
        <ele>45.766248</ele>
        <time>2021-10-25T17:34:20.430Z</time>
      </trkpt>
      <trkpt lat="49.45998" lon="-1.70218">
        <ele>46.571261</ele>
        <time>2021-10-25T17:34:41.705Z</time>
      </trkpt>
      <trkpt lat="49.45912" lon="-1.7022">
        <ele>47.386347</ele>
        <time>2021-10-25T17:35:03.713Z</time>
      </trkpt>
      <trkpt lat="49.45883" lon="-1.70229">
        <ele>48.687822</ele>
        <time>2021-10-25T17:35:12.049Z</time>
      </trkpt>
      <trkpt lat="49.45763" lon="-1.70245">
        <ele>55.055811</ele>
        <time>2021-10-25T17:35:47.571Z</time>
      </trkpt>
      <trkpt lat="49.45727" lon="-1.70251">
        <ele>57.019882</ele>
        <time>2021-10-25T17:35:58.982Z</time>
      </trkpt>
      <trkpt lat="49.45723" lon="-1.70383">
        <ele>61.573258</ele>
        <time>2021-10-25T17:36:24.486Z</time>
      </trkpt>
      <trkpt lat="49.45718" lon="-1.70499">
        <ele>65.606673</ele>
        <time>2021-10-25T17:36:46.011Z</time>
      </trkpt>
      <trkpt lat="49.45709" lon="-1.70532">
        <ele>66.794343</ele>
        <time>2021-10-25T17:36:52.505Z</time>
      </trkpt>
      <trkpt lat="49.45674" lon="-1.70545">
        <ele>68.234301</ele>
        <time>2021-10-25T17:37:02.705Z</time>
      </trkpt>
      <trkpt lat="49.45642" lon="-1.70548">
        <ele>69.50979</ele>
        <time>2021-10-25T17:37:11.866Z</time>
      </trkpt>
      <trkpt lat="49.4562" lon="-1.70641">
        <ele>72.05356</ele>
        <time>2021-10-25T17:37:29.500Z</time>
      </trkpt>
      <trkpt lat="49.45611" lon="-1.70677">
        <ele>73.053664</ele>
        <time>2021-10-25T17:37:36.192Z</time>
      </trkpt>
      <trkpt lat="49.45596" lon="-1.70729">
        <ele>73.677512</ele>
        <time>2021-10-25T17:37:45.809Z</time>
      </trkpt>
      <trkpt lat="49.45598" lon="-1.70743">
        <ele>73.656583</ele>
        <time>2021-10-25T17:37:47.495Z</time>
      </trkpt>
      <trkpt lat="49.4559" lon="-1.70816">
        <ele>73.547799</ele>
        <time>2021-10-25T17:37:55.916Z</time>
      </trkpt>
      <trkpt lat="49.45511" lon="-1.71093">
        <ele>69.927611</ele>
        <time>2021-10-25T17:38:20.309Z</time>
      </trkpt>
      <trkpt lat="49.45473" lon="-1.71187">
        <ele>67.361869</ele>
        <time>2021-10-25T17:38:27.888Z</time>
      </trkpt>
      <trkpt lat="49.45421" lon="-1.71227">
        <ele>64.713261</ele>
        <time>2021-10-25T17:38:33.995Z</time>
      </trkpt>
      <trkpt lat="49.45372" lon="-1.71231">
        <ele>62.406064</ele>
        <time>2021-10-25T17:38:39.108Z</time>
      </trkpt>
      <trkpt lat="49.45334" lon="-1.71216">
        <ele>60.519296</ele>
        <time>2021-10-25T17:38:43.398Z</time>
      </trkpt>
      <trkpt lat="49.45304" lon="-1.71178">
        <ele>58.654497</ele>
        <time>2021-10-25T17:38:47.759Z</time>
      </trkpt>
      <trkpt lat="49.45289" lon="-1.71136">
        <ele>57.376842</ele>
        <time>2021-10-25T17:38:51.320Z</time>
      </trkpt>
      <trkpt lat="49.45278" lon="-1.71103">
        <ele>56.472831</ele>
        <time>2021-10-25T17:38:53.887Z</time>
      </trkpt>
      <trkpt lat="49.45264" lon="-1.7103">
        <ele>54.598026</ele>
        <time>2021-10-25T17:38:59.347Z</time>
      </trkpt>
      <trkpt lat="49.45248" lon="-1.71013">
        <ele>53.882232</ele>
        <time>2021-10-25T17:39:01.465Z</time>
      </trkpt>
      <trkpt lat="49.4524" lon="-1.71014">
        <ele>53.575699</ele>
        <time>2021-10-25T17:39:02.565Z</time>
      </trkpt>
      <trkpt lat="49.4523" lon="-1.71053">
        <ele>52.559658</ele>
        <time>2021-10-25T17:39:05.809Z</time>
      </trkpt>
      <trkpt lat="49.45223" lon="-1.71081">
        <ele>51.816873</ele>
        <time>2021-10-25T17:39:08.406Z</time>
      </trkpt>
      <trkpt lat="49.45218" lon="-1.71094">
        <ele>51.446468</ele>
        <time>2021-10-25T17:39:09.499Z</time>
      </trkpt>
      <trkpt lat="49.45233" lon="-1.71126">
        <ele>50.352256</ele>
        <time>2021-10-25T17:39:14.896Z</time>
      </trkpt>
      <trkpt lat="49.45291" lon="-1.71293">
        <ele>45.144185</ele>
        <time>2021-10-25T17:39:39.004Z</time>
      </trkpt>
      <trkpt lat="49.45368" lon="-1.71385">
        <ele>41.204492</ele>
        <time>2021-10-25T17:39:58.079Z</time>
      </trkpt>
      <trkpt lat="49.45413" lon="-1.71403">
        <ele>39.400948</ele>
        <time>2021-10-25T17:40:07.216Z</time>
      </trkpt>
      <trkpt lat="49.45416" lon="-1.71417">
        <ele>39.017736</ele>
        <time>2021-10-25T17:40:09.174Z</time>
      </trkpt>
      <trkpt lat="49.454" lon="-1.71451">
        <ele>37.937906</ele>
        <time>2021-10-25T17:40:13.439Z</time>
      </trkpt>
      <trkpt lat="49.45373" lon="-1.71497">
        <ele>36.80867</ele>
        <time>2021-10-25T17:40:19.933Z</time>
      </trkpt>
      <trkpt lat="49.45337" lon="-1.7154">
        <ele>36.936525</ele>
        <time>2021-10-25T17:40:27.564Z</time>
      </trkpt>
      <trkpt lat="49.45311" lon="-1.71598">
        <ele>37.06697</ele>
        <time>2021-10-25T17:40:36.004Z</time>
      </trkpt>
      <trkpt lat="49.45309" lon="-1.71638">
        <ele>37.141092</ele>
        <time>2021-10-25T17:40:41.697Z</time>
      </trkpt>
      <trkpt lat="49.4528" lon="-1.71745">
        <ele>38.442159</ele>
        <time>2021-10-25T17:40:59.467Z</time>
      </trkpt>
      <trkpt lat="49.45273" lon="-1.71804">
        <ele>40.341943</ele>
        <time>2021-10-25T17:41:09.126Z</time>
      </trkpt>
      <trkpt lat="49.45278" lon="-1.71842">
        <ele>41.605364</ele>
        <time>2021-10-25T17:41:15.744Z</time>
      </trkpt>
      <trkpt lat="49.45277" lon="-1.71865">
        <ele>42.329556</ele>
        <time>2021-10-25T17:41:19.727Z</time>
      </trkpt>
      <trkpt lat="49.45248" lon="-1.7193">
        <ele>44.855775</ele>
        <time>2021-10-25T17:41:33.366Z</time>
      </trkpt>
      <trkpt lat="49.45245" lon="-1.71976">
        <ele>46.303895</ele>
        <time>2021-10-25T17:41:41.376Z</time>
      </trkpt>
      <trkpt lat="49.45239" lon="-1.72108">
        <ele>50.002607</ele>
        <time>2021-10-25T17:42:03.426Z</time>
      </trkpt>
      <trkpt lat="49.45285" lon="-1.72157">
        <ele>52.412567</ele>
        <time>2021-10-25T17:42:15.085Z</time>
      </trkpt>
      <trkpt lat="49.45443" lon="-1.72326">
        <ele>58.668902</ele>
        <time>2021-10-25T17:42:53.393Z</time>
      </trkpt>
      <trkpt lat="49.45527" lon="-1.72416">
        <ele>61.730026</ele>
        <time>2021-10-25T17:43:13.735Z</time>
      </trkpt>
      <trkpt lat="49.45553" lon="-1.7245">
        <ele>62.747713</ele>
        <time>2021-10-25T17:43:20.574Z</time>
      </trkpt>
      <trkpt lat="49.4566" lon="-1.72629">
        <ele>67.173274</ele>
        <time>2021-10-25T17:43:51.826Z</time>
      </trkpt>
      <trkpt lat="49.45722" lon="-1.72702">
        <ele>69.255882</ele>
        <time>2021-10-25T17:44:06.700Z</time>
      </trkpt>
      <trkpt lat="49.45775" lon="-1.72742">
        <ele>70.684363</ele>
        <time>2021-10-25T17:44:18.060Z</time>
      </trkpt>
      <trkpt lat="49.45855" lon="-1.72812">
        <ele>72.824004</ele>
        <time>2021-10-25T17:44:35.602Z</time>
      </trkpt>
      <trkpt lat="49.45947" lon="-1.72893">
        <ele>74.659442</ele>
        <time>2021-10-25T17:44:55.544Z</time>
      </trkpt>
      <trkpt lat="49.45955" lon="-1.729">
        <ele>74.784919</ele>
        <time>2021-10-25T17:44:57.388Z</time>
      </trkpt>
      <trkpt lat="49.4597" lon="-1.72914">
        <ele>75.042098</ele>
        <time>2021-10-25T17:45:00.617Z</time>
      </trkpt>
      <trkpt lat="49.45994" lon="-1.72864">
        <ele>75.607881</ele>
        <time>2021-10-25T17:45:10.755Z</time>
      </trkpt>
      <trkpt lat="49.46002" lon="-1.72852">
        <ele>75.764919</ele>
        <time>2021-10-25T17:45:13.561Z</time>
      </trkpt>
      <trkpt lat="49.45994" lon="-1.72864">
        <ele>75.921956</ele>
        <time>2021-10-25T17:45:16.366Z</time>
      </trkpt>
      <trkpt lat="49.4597" lon="-1.72914">
        <ele>75.774998</ele>
        <time>2021-10-25T17:45:26.064Z</time>
      </trkpt>
      <trkpt lat="49.45955" lon="-1.729">
        <ele>75.375972</ele>
        <time>2021-10-25T17:45:28.583Z</time>
      </trkpt>
      <trkpt lat="49.45936" lon="-1.72973">
        <ele>74.259451</ele>
        <time>2021-10-25T17:45:40.120Z</time>
      </trkpt>
      <trkpt lat="49.45892" lon="-1.73093">
        <ele>72.329715</ele>
        <time>2021-10-25T17:45:58.400Z</time>
      </trkpt>
      <trkpt lat="49.45869" lon="-1.7317">
        <ele>69.682763</ele>
        <time>2021-10-25T17:46:09.119Z</time>
      </trkpt>
      <trkpt lat="49.4585" lon="-1.73509">
        <ele>60.465963</ele>
        <time>2021-10-25T17:46:51.480Z</time>
      </trkpt>
      <trkpt lat="49.45835" lon="-1.73596">
        <ele>58.573501</ele>
        <time>2021-10-25T17:47:04.240Z</time>
      </trkpt>
      <trkpt lat="49.45824" lon="-1.73626">
        <ele>57.857292</ele>
        <time>2021-10-25T17:47:09.488Z</time>
      </trkpt>
      <trkpt lat="49.45816" lon="-1.73704">
        <ele>58.797565</ele>
        <time>2021-10-25T17:47:22.155Z</time>
      </trkpt>
      <trkpt lat="49.45779" lon="-1.73859">
        <ele>61.234931</ele>
        <time>2021-10-25T17:47:50.251Z</time>
      </trkpt>
      <trkpt lat="49.45736" lon="-1.74005">
        <ele>64.44427</ele>
        <time>2021-10-25T17:48:18.932Z</time>
      </trkpt>
      <trkpt lat="49.45732" lon="-1.74121">
        <ele>66.983622</ele>
        <time>2021-10-25T17:48:39.110Z</time>
      </trkpt>
      <trkpt lat="49.45724" lon="-1.74136">
        <ele>67.410878</ele>
        <time>2021-10-25T17:48:42.464Z</time>
      </trkpt>
      <trkpt lat="49.45703" lon="-1.74184">
        <ele>67.943231</ele>
        <time>2021-10-25T17:48:51.879Z</time>
      </trkpt>
      <trkpt lat="49.45671" lon="-1.74238">
        <ele>68.182768</ele>
        <time>2021-10-25T17:49:03.929Z</time>
      </trkpt>
      <trkpt lat="49.45591" lon="-1.74348">
        <ele>68.718976</ele>
        <time>2021-10-25T17:49:29.637Z</time>
      </trkpt>
      <trkpt lat="49.45525" lon="-1.74501">
        <ele>67.181281</ele>
        <time>2021-10-25T17:49:56.892Z</time>
      </trkpt>
      <trkpt lat="49.45519" lon="-1.74527">
        <ele>66.951684</ele>
        <time>2021-10-25T17:50:00.926Z</time>
      </trkpt>
      <trkpt lat="49.45505" lon="-1.74532">
        <ele>66.765716</ele>
        <time>2021-10-25T17:50:04.153Z</time>
      </trkpt>
      <trkpt lat="49.45463" lon="-1.74587">
        <ele>66.09368</ele>
        <time>2021-10-25T17:50:16.484Z</time>
      </trkpt>
      <trkpt lat="49.45425" lon="-1.74649">
        <ele>65.437395</ele>
        <time>2021-10-25T17:50:29.168Z</time>
      </trkpt>
      <trkpt lat="49.45374" lon="-1.74692">
        <ele>64.746808</ele>
        <time>2021-10-25T17:50:42.841Z</time>
      </trkpt>
      <trkpt lat="49.45308" lon="-1.74802">
        <ele>63.173231</ele>
        <time>2021-10-25T17:51:05.811Z</time>
      </trkpt>
      <trkpt lat="49.45387" lon="-1.7512">
        <ele>57.134881</ele>
        <time>2021-10-25T17:51:53.100Z</time>
      </trkpt>
      <trkpt lat="49.45391" lon="-1.7513">
        <ele>56.838135</ele>
        <time>2021-10-25T17:51:54.723Z</time>
      </trkpt>
      <trkpt lat="49.45392" lon="-1.7514">
        <ele>56.604404</ele>
        <time>2021-10-25T17:51:55.354Z</time>
      </trkpt>
      <trkpt lat="49.45434" lon="-1.75371">
        <ele>50.896429</ele>
        <time>2021-10-25T17:52:13.200Z</time>
      </trkpt>
      <trkpt lat="49.45415" lon="-1.75645">
        <ele>46.162662</ele>
        <time>2021-10-25T17:52:36.147Z</time>
      </trkpt>
      <trkpt lat="49.45415" lon="-1.75655">
        <ele>46.056703</ele>
        <time>2021-10-25T17:52:37.030Z</time>
      </trkpt>
      <trkpt lat="49.4541" lon="-1.75659">
        <ele>45.965163</ele>
        <time>2021-10-25T17:52:37.697Z</time>
      </trkpt>
      <trkpt lat="49.45329" lon="-1.75728">
        <ele>44.808342</ele>
        <time>2021-10-25T17:52:50.247Z</time>
      </trkpt>
      <trkpt lat="49.45319" lon="-1.75749">
        <ele>44.981949</ele>
        <time>2021-10-25T17:52:52.938Z</time>
      </trkpt>
      <trkpt lat="49.45313" lon="-1.75776">
        <ele>45.174835</ele>
        <time>2021-10-25T17:52:55.914Z</time>
      </trkpt>
      <trkpt lat="49.45309" lon="-1.75784">
        <ele>45.241901</ele>
        <time>2021-10-25T17:52:56.706Z</time>
      </trkpt>
      <trkpt lat="49.45275" lon="-1.75798">
        <ele>45.60766</ele>
        <time>2021-10-25T17:53:02.400Z</time>
      </trkpt>
      <trkpt lat="49.45309" lon="-1.75784">
        <ele>45.973419</ele>
        <time>2021-10-25T17:53:08.578Z</time>
      </trkpt>
      <trkpt lat="49.45313" lon="-1.75776">
        <ele>46.040485</ele>
        <time>2021-10-25T17:53:09.993Z</time>
      </trkpt>
      <trkpt lat="49.45317" lon="-1.75793">
        <ele>46.16073</ele>
        <time>2021-10-25T17:53:13.021Z</time>
      </trkpt>
      <trkpt lat="49.45314" lon="-1.75867">
        <ele>46.913782</ele>
        <time>2021-10-25T17:53:25.383Z</time>
      </trkpt>
      <trkpt lat="49.45316" lon="-1.7589">
        <ele>47.366771</ele>
        <time>2021-10-25T17:53:29.386Z</time>
      </trkpt>
      <trkpt lat="49.45321" lon="-1.75904">
        <ele>47.675548</ele>
        <time>2021-10-25T17:53:32.124Z</time>
      </trkpt>
      <trkpt lat="49.45366" lon="-1.75933">
        <ele>49.119524</ele>
        <time>2021-10-25T17:53:44.942Z</time>
      </trkpt>
      <trkpt lat="49.45369" lon="-1.75939">
        <ele>49.275487</ele>
        <time>2021-10-25T17:53:46.530Z</time>
      </trkpt>
      <trkpt lat="49.45391" lon="-1.75954">
        <ele>49.991313</ele>
        <time>2021-10-25T17:53:53.208Z</time>
      </trkpt>
      <trkpt lat="49.45437" lon="-1.75989">
        <ele>51.520757</ele>
        <time>2021-10-25T17:54:06.460Z</time>
      </trkpt>
      <trkpt lat="49.4548" lon="-1.76036">
        <ele>52.106348</ele>
        <time>2021-10-25T17:54:19.978Z</time>
      </trkpt>
      <trkpt lat="49.45511" lon="-1.7606">
        <ele>52.2786</ele>
        <time>2021-10-25T17:54:28.883Z</time>
      </trkpt>
      <trkpt lat="49.45517" lon="-1.76067">
        <ele>52.313695</ele>
        <time>2021-10-25T17:54:30.762Z</time>
      </trkpt>
      <trkpt lat="49.4552" lon="-1.76073">
        <ele>52.33716</ele>
        <time>2021-10-25T17:54:31.798Z</time>
      </trkpt>
      <trkpt lat="49.4555" lon="-1.76137">
        <ele>52.586551</ele>
        <time>2021-10-25T17:54:43.997Z</time>
      </trkpt>
      <trkpt lat="49.45699" lon="-1.76398">
        <ele>51.55287</ele>
        <time>2021-10-25T17:55:36.449Z</time>
      </trkpt>
      <trkpt lat="49.45822" lon="-1.76427">
        <ele>54.5775</ele>
        <time>2021-10-25T17:56:08.242Z</time>
      </trkpt>
      <trkpt lat="49.45889" lon="-1.76467">
        <ele>57.108615</ele>
        <time>2021-10-25T17:56:28.542Z</time>
      </trkpt>
      <trkpt lat="49.45893" lon="-1.76471">
        <ele>57.413265</ele>
        <time>2021-10-25T17:56:30.045Z</time>
      </trkpt>
      <trkpt lat="49.45899" lon="-1.76477">
        <ele>57.833469</ele>
        <time>2021-10-25T17:56:32.047Z</time>
      </trkpt>
      <trkpt lat="49.45918" lon="-1.76497">
        <ele>59.269298</ele>
        <time>2021-10-25T17:56:38.981Z</time>
      </trkpt>
      <trkpt lat="49.45972" lon="-1.76538">
        <ele>62.962761</ele>
        <time>2021-10-25T17:56:57.590Z</time>
      </trkpt>
      <trkpt lat="49.46021" lon="-1.76588">
        <ele>66.581737</ele>
        <time>2021-10-25T17:57:16.465Z</time>
      </trkpt>
      <trkpt lat="49.46051" lon="-1.76626">
        <ele>68.67003</ele>
        <time>2021-10-25T17:57:28.851Z</time>
      </trkpt>
      <trkpt lat="49.46094" lon="-1.76699">
        <ele>71.959793</ele>
        <time>2021-10-25T17:57:47.669Z</time>
      </trkpt>
      <trkpt lat="49.46194" lon="-1.76814">
        <ele>76.804592</ele>
        <time>2021-10-25T17:58:21.885Z</time>
      </trkpt>
      <trkpt lat="49.46236" lon="-1.76877">
        <ele>77.650293</ele>
        <time>2021-10-25T17:58:36.730Z</time>
      </trkpt>
      <trkpt lat="49.46241" lon="-1.76892">
        <ele>77.803632</ele>
        <time>2021-10-25T17:58:39.372Z</time>
      </trkpt>
      <trkpt lat="49.46243" lon="-1.76901">
        <ele>77.897359</ele>
        <time>2021-10-25T17:58:41.038Z</time>
      </trkpt>
      <trkpt lat="49.46161" lon="-1.76984">
        <ele>78.299411</ele>
        <time>2021-10-25T17:59:04.671Z</time>
      </trkpt>
      <trkpt lat="49.4614" lon="-1.76999">
        <ele>78.010573</ele>
        <time>2021-10-25T17:59:09.849Z</time>
      </trkpt>
      <trkpt lat="49.46047" lon="-1.77101">
        <ele>76.55898</ele>
        <time>2021-10-25T17:59:35.334Z</time>
      </trkpt>
      <trkpt lat="49.46006" lon="-1.77166">
        <ele>75.991937</ele>
        <time>2021-10-25T17:59:49.093Z</time>
      </trkpt>
      <trkpt lat="49.45986" lon="-1.77253">
        <ele>75.435414</ele>
        <time>2021-10-25T18:00:03.108Z</time>
      </trkpt>
      <trkpt lat="49.45985" lon="-1.77303">
        <ele>75.131803</ele>
        <time>2021-10-25T18:00:10.811Z</time>
      </trkpt>
      <trkpt lat="49.45975" lon="-1.77308">
        <ele>75.027137</ele>
        <time>2021-10-25T18:00:12.343Z</time>
      </trkpt>
      <trkpt lat="49.45968" lon="-1.77322">
        <ele>74.921513</ele>
        <time>2021-10-25T18:00:13.965Z</time>
      </trkpt>
      <trkpt lat="49.45949" lon="-1.77381">
        <ele>74.630736</ele>
        <time>2021-10-25T18:00:24.270Z</time>
      </trkpt>
      <trkpt lat="49.45929" lon="-1.77429">
        <ele>74.415855</ele>
        <time>2021-10-25T18:00:33.097Z</time>
      </trkpt>
      <trkpt lat="49.45842" lon="-1.77582">
        <ele>73.638081</ele>
        <time>2021-10-25T18:01:04.453Z</time>
      </trkpt>
      <trkpt lat="49.45841" lon="-1.77609">
        <ele>73.526625</ele>
        <time>2021-10-25T18:01:08.705Z</time>
      </trkpt>
      <trkpt lat="49.45856" lon="-1.77718">
        <ele>73.074067</ele>
        <time>2021-10-25T18:01:25.988Z</time>
      </trkpt>
      <trkpt lat="49.45873" lon="-1.77804">
        <ele>72.706857</ele>
        <time>2021-10-25T18:01:39.920Z</time>
      </trkpt>
      <trkpt lat="49.45901" lon="-1.77908">
        <ele>71.738197</ele>
        <time>2021-10-25T18:01:56.969Z</time>
      </trkpt>
      <trkpt lat="49.4592" lon="-1.77975">
        <ele>71.055061</ele>
        <time>2021-10-25T18:02:07.813Z</time>
      </trkpt>
      <trkpt lat="49.45908" lon="-1.77993">
        <ele>70.808088</ele>
        <time>2021-10-25T18:02:11.554Z</time>
      </trkpt>
      <trkpt lat="49.45868" lon="-1.78052">
        <ele>69.979255</ele>
        <time>2021-10-25T18:02:23.897Z</time>
      </trkpt>
      <trkpt lat="49.45856" lon="-1.7809">
        <ele>69.272755</ele>
        <time>2021-10-25T18:02:29.802Z</time>
      </trkpt>
      <trkpt lat="49.45805" lon="-1.78194">
        <ele>67.096855</ele>
        <time>2021-10-25T18:02:47.928Z</time>
      </trkpt>
      <trkpt lat="49.45786" lon="-1.78267">
        <ele>65.781344</ele>
        <time>2021-10-25T18:02:58.553Z</time>
      </trkpt>
      <trkpt lat="49.45765" lon="-1.78248">
        <ele>65.011427</ele>
        <time>2021-10-25T18:03:03.844Z</time>
      </trkpt>
      <trkpt lat="49.45761" lon="-1.78244">
        <ele>64.850268</ele>
        <time>2021-10-25T18:03:04.690Z</time>
      </trkpt>
      <trkpt lat="49.45765" lon="-1.78248">
        <ele>64.689109</ele>
        <time>2021-10-25T18:03:05.511Z</time>
      </trkpt>
      <trkpt lat="49.45786" lon="-1.78267">
        <ele>63.74034</ele>
        <time>2021-10-25T18:03:10.757Z</time>
      </trkpt>
      <trkpt lat="49.45795" lon="-1.78281">
        <ele>63.263793</ele>
        <time>2021-10-25T18:03:13.191Z</time>
      </trkpt>
      <trkpt lat="49.45822" lon="-1.78351">
        <ele>61.238909</ele>
        <time>2021-10-25T18:03:24.036Z</time>
      </trkpt>
      <trkpt lat="49.45836" lon="-1.78354">
        <ele>60.685769</ele>
        <time>2021-10-25T18:03:26.941Z</time>
      </trkpt>
      <trkpt lat="49.45875" lon="-1.78342">
        <ele>59.175585</ele>
        <time>2021-10-25T18:03:34.802Z</time>
      </trkpt>
      <trkpt lat="49.45898" lon="-1.78347">
        <ele>58.170278</ele>
        <time>2021-10-25T18:03:39.292Z</time>
      </trkpt>
      <trkpt lat="49.45914" lon="-1.78398">
        <ele>56.213983</ele>
        <time>2021-10-25T18:03:46.156Z</time>
      </trkpt>
      <trkpt lat="49.45931" lon="-1.78396">
        <ele>55.321565</ele>
        <time>2021-10-25T18:03:49.331Z</time>
      </trkpt>
      <trkpt lat="49.45975" lon="-1.78374">
        <ele>52.827255</ele>
        <time>2021-10-25T18:03:58.095Z</time>
      </trkpt>
      <trkpt lat="49.46007" lon="-1.78373">
        <ele>51.120253</ele>
        <time>2021-10-25T18:04:04.185Z</time>
      </trkpt>
      <trkpt lat="49.46021" lon="-1.78383">
        <ele>50.300376</ele>
        <time>2021-10-25T18:04:05.842Z</time>
      </trkpt>
      <trkpt lat="49.46041" lon="-1.78419">
        <ele>48.799851</ele>
        <time>2021-10-25T18:04:09.374Z</time>
      </trkpt>
      <trkpt lat="49.46079" lon="-1.7845">
        <ele>47.546255</ele>
        <time>2021-10-25T18:04:14.400Z</time>
      </trkpt>
      <trkpt lat="49.4606" lon="-1.78513">
        <ele>46.246498</ele>
        <time>2021-10-25T18:04:19.473Z</time>
      </trkpt>
      <trkpt lat="49.46058" lon="-1.7853">
        <ele>45.917585</ele>
        <time>2021-10-25T18:04:20.896Z</time>
      </trkpt>
      <trkpt lat="49.46063" lon="-1.78555">
        <ele>45.421056</ele>
        <time>2021-10-25T18:04:22.784Z</time>
      </trkpt>
      <trkpt lat="49.46105" lon="-1.786">
        <ele>43.935828</ele>
        <time>2021-10-25T18:04:29.528Z</time>
      </trkpt>
      <trkpt lat="49.46109" lon="-1.78611">
        <ele>43.734574</ele>
        <time>2021-10-25T18:04:30.839Z</time>
      </trkpt>
      <trkpt lat="49.46123" lon="-1.78593">
        <ele>43.735299</ele>
        <time>2021-10-25T18:04:35.030Z</time>
      </trkpt>
      <trkpt lat="49.46137" lon="-1.78588">
        <ele>43.73588</ele>
        <time>2021-10-25T18:04:38.660Z</time>
      </trkpt>
      <trkpt lat="49.46205" lon="-1.78593">
        <ele>43.738582</ele>
        <time>2021-10-25T18:04:55.037Z</time>
      </trkpt>
      <trkpt lat="49.46225" lon="-1.78584">
        <ele>43.739425</ele>
        <time>2021-10-25T18:05:00.207Z</time>
      </trkpt>
      <trkpt lat="49.46261" lon="-1.78584">
        <ele>43.740873</ele>
        <time>2021-10-25T18:05:09.069Z</time>
      </trkpt>
      <trkpt lat="49.46333" lon="-1.78603">
        <ele>44.02739</ele>
        <time>2021-10-25T18:05:26.770Z</time>
      </trkpt>
      <trkpt lat="49.46386" lon="-1.78596">
        <ele>44.322732</ele>
        <time>2021-10-25T18:05:39.846Z</time>
      </trkpt>
      <trkpt lat="49.46396" lon="-1.78593">
        <ele>44.383658</ele>
        <time>2021-10-25T18:05:42.602Z</time>
      </trkpt>
      <trkpt lat="49.46514" lon="-1.78552">
        <ele>45.305189</ele>
        <time>2021-10-25T18:06:12.662Z</time>
      </trkpt>
      <trkpt lat="49.46632" lon="-1.78492">
        <ele>46.538746</ele>
        <time>2021-10-25T18:06:43.584Z</time>
      </trkpt>
      <trkpt lat="49.46693" lon="-1.78477">
        <ele>47.025851</ele>
        <time>2021-10-25T18:06:59.309Z</time>
      </trkpt>
      <trkpt lat="49.46735" lon="-1.78486">
        <ele>47.355844</ele>
        <time>2021-10-25T18:07:09.815Z</time>
      </trkpt>
      <trkpt lat="49.46839" lon="-1.78501">
        <ele>47.919405</ele>
        <time>2021-10-25T18:07:35.478Z</time>
      </trkpt>
      <trkpt lat="49.4684" lon="-1.78493">
        <ele>47.915695</ele>
        <time>2021-10-25T18:07:36.751Z</time>
      </trkpt>
      <trkpt lat="49.46908" lon="-1.78425">
        <ele>47.86007</ele>
        <time>2021-10-25T18:07:56.250Z</time>
      </trkpt>
      <trkpt lat="49.46996" lon="-1.78323">
        <ele>47.701528</ele>
        <time>2021-10-25T18:08:22.584Z</time>
      </trkpt>
      <trkpt lat="49.47052" lon="-1.78286">
        <ele>47.548677</ele>
        <time>2021-10-25T18:08:37.281Z</time>
      </trkpt>
      <trkpt lat="49.47169" lon="-1.78258">
        <ele>47.386877</ele>
        <time>2021-10-25T18:09:05.714Z</time>
      </trkpt>
      <trkpt lat="49.47222" lon="-1.78292">
        <ele>47.410631</ele>
        <time>2021-10-25T18:09:19.315Z</time>
      </trkpt>
      <trkpt lat="49.47226" lon="-1.78288">
        <ele>47.412617</ele>
        <time>2021-10-25T18:09:20.450Z</time>
      </trkpt>
      <trkpt lat="49.47237" lon="-1.78259">
        <ele>47.421974</ele>
        <time>2021-10-25T18:09:25.817Z</time>
      </trkpt>
      <trkpt lat="49.47279" lon="-1.78268">
        <ele>47.439626</ele>
        <time>2021-10-25T18:09:36.198Z</time>
      </trkpt>
      <trkpt lat="49.4733" lon="-1.78286">
        <ele>47.93085</ele>
        <time>2021-10-25T18:09:49.159Z</time>
      </trkpt>
      <trkpt lat="49.47334" lon="-1.78272">
        <ele>48.045403</ele>
        <time>2021-10-25T18:09:50.818Z</time>
      </trkpt>
      <trkpt lat="49.47337" lon="-1.78259">
        <ele>48.1391</ele>
        <time>2021-10-25T18:09:52.199Z</time>
      </trkpt>
      <trkpt lat="49.47338" lon="-1.78241">
        <ele>48.270704</ele>
        <time>2021-10-25T18:09:54.310Z</time>
      </trkpt>
      <trkpt lat="49.47368" lon="-1.78235">
        <ele>48.60837</ele>
        <time>2021-10-25T18:09:59.545Z</time>
      </trkpt>
      <trkpt lat="49.47373" lon="-1.78234">
        <ele>48.659471</ele>
        <time>2021-10-25T18:10:00.522Z</time>
      </trkpt>
      <trkpt lat="49.47394" lon="-1.78224">
        <ele>48.901508</ele>
        <time>2021-10-25T18:10:04.426Z</time>
      </trkpt>
      <trkpt lat="49.47495" lon="-1.78145">
        <ele>50.935517</ele>
        <time>2021-10-25T18:10:25.700Z</time>
      </trkpt>
      <trkpt lat="49.4754" lon="-1.78164">
        <ele>51.994275</ele>
        <time>2021-10-25T18:10:34.647Z</time>
      </trkpt>
      <trkpt lat="49.4758" lon="-1.7816">
        <ele>52.917423</ele>
        <time>2021-10-25T18:10:42.709Z</time>
      </trkpt>
      <trkpt lat="49.47581" lon="-1.78162">
        <ele>52.949788</ele>
        <time>2021-10-25T18:10:42.965Z</time>
      </trkpt>
      <trkpt lat="49.47619" lon="-1.78199">
        <ele>54.361684</ele>
        <time>2021-10-25T18:10:52.183Z</time>
      </trkpt>
      <trkpt lat="49.47641" lon="-1.7822">
        <ele>55.490009</ele>
        <time>2021-10-25T18:10:57.660Z</time>
      </trkpt>
      <trkpt lat="49.47675" lon="-1.78168">
        <ele>57.536155</ele>
        <time>2021-10-25T18:11:10.567Z</time>
      </trkpt>
      <trkpt lat="49.47796" lon="-1.78216">
        <ele>63.50736</ele>
        <time>2021-10-25T18:11:46.521Z</time>
      </trkpt>
      <trkpt lat="49.47843" lon="-1.78216">
        <ele>66.253424</ele>
        <time>2021-10-25T18:12:00.577Z</time>
      </trkpt>
      <trkpt lat="49.479" lon="-1.78216">
        <ele>69.574245</ele>
        <time>2021-10-25T18:12:17.717Z</time>
      </trkpt>
      <trkpt lat="49.47967" lon="-1.78248">
        <ele>74.009432</ele>
        <time>2021-10-25T18:12:39.289Z</time>
      </trkpt>
      <trkpt lat="49.48296" lon="-1.78246">
        <ele>97.143891</ele>
        <time>2021-10-25T18:14:24.693Z</time>
      </trkpt>
      <trkpt lat="49.4831" lon="-1.78205">
        <ele>99.219623</ele>
        <time>2021-10-25T18:14:34.435Z</time>
      </trkpt>
      <trkpt lat="49.48408" lon="-1.78162">
        <ele>106.270087</ele>
        <time>2021-10-25T18:15:07.259Z</time>
      </trkpt>
      <trkpt lat="49.48419" lon="-1.78151">
        <ele>107.17912</ele>
        <time>2021-10-25T18:15:10.574Z</time>
      </trkpt>
      <trkpt lat="49.48421" lon="-1.78149">
        <ele>107.361416</ele>
        <time>2021-10-25T18:15:11.649Z</time>
      </trkpt>
      <trkpt lat="49.48448" lon="-1.78169">
        <ele>109.464222</ele>
        <time>2021-10-25T18:15:19.106Z</time>
      </trkpt>
      <trkpt lat="49.48466" lon="-1.78181">
        <ele>110.243373</ele>
        <time>2021-10-25T18:15:24.099Z</time>
      </trkpt>
      <trkpt lat="49.48512" lon="-1.78211">
        <ele>112.300232</ele>
        <time>2021-10-25T18:15:35.802Z</time>
      </trkpt>
      <trkpt lat="49.48525" lon="-1.7822">
        <ele>112.917002</ele>
        <time>2021-10-25T18:15:39.548Z</time>
      </trkpt>
      <trkpt lat="49.48545" lon="-1.78233">
        <ele>113.781604</ele>
        <time>2021-10-25T18:15:43.981Z</time>
      </trkpt>
      <trkpt lat="49.48546" lon="-1.78252">
        <ele>114.291551</ele>
        <time>2021-10-25T18:15:46.941Z</time>
      </trkpt>
      <trkpt lat="49.48591" lon="-1.78285">
        <ele>116.31481</ele>
        <time>2021-10-25T18:15:56.781Z</time>
      </trkpt>
      <trkpt lat="49.48633" lon="-1.78187">
        <ele>116.752659</ele>
        <time>2021-10-25T18:16:09.635Z</time>
      </trkpt>
      <trkpt lat="49.48647" lon="-1.78158">
        <ele>116.708917</ele>
        <time>2021-10-25T18:16:12.986Z</time>
      </trkpt>
      <trkpt lat="49.48672" lon="-1.78152">
        <ele>116.660935</ele>
        <time>2021-10-25T18:16:16.667Z</time>
      </trkpt>
      <trkpt lat="49.48714" lon="-1.78134">
        <ele>116.578802</ele>
        <time>2021-10-25T18:16:22.831Z</time>
      </trkpt>
      <trkpt lat="49.48754" lon="-1.78121">
        <ele>116.212365</ele>
        <time>2021-10-25T18:16:32.023Z</time>
      </trkpt>
      <trkpt lat="49.48817" lon="-1.78108">
        <ele>114.953227</ele>
        <time>2021-10-25T18:16:46.230Z</time>
      </trkpt>
      <trkpt lat="49.48851" lon="-1.7808">
        <ele>114.180569</ele>
        <time>2021-10-25T18:16:54.979Z</time>
      </trkpt>
      <trkpt lat="49.49023" lon="-1.78019">
        <ele>108.944263</ele>
        <time>2021-10-25T18:17:32.020Z</time>
      </trkpt>
      <trkpt lat="49.49051" lon="-1.78009">
        <ele>107.914675</ele>
        <time>2021-10-25T18:17:37.804Z</time>
      </trkpt>
      <trkpt lat="49.49076" lon="-1.78007">
        <ele>107.039408</ele>
        <time>2021-10-25T18:17:42.634Z</time>
      </trkpt>
      <trkpt lat="49.49133" lon="-1.78002">
        <ele>104.232576</ele>
        <time>2021-10-25T18:17:53.745Z</time>
      </trkpt>
      <trkpt lat="49.4915" lon="-1.77993">
        <ele>103.303375</ele>
        <time>2021-10-25T18:17:57.076Z</time>
      </trkpt>
      <trkpt lat="49.49201" lon="-1.7807">
        <ele>99.578308</ele>
        <time>2021-10-25T18:18:10.586Z</time>
      </trkpt>
      <trkpt lat="49.49312" lon="-1.78205">
        <ele>92.90057</ele>
        <time>2021-10-25T18:18:37.649Z</time>
      </trkpt>
      <trkpt lat="49.49394" lon="-1.78287">
        <ele>88.728892</ele>
        <time>2021-10-25T18:18:57.238Z</time>
      </trkpt>
      <trkpt lat="49.49487" lon="-1.78324">
        <ele>86.058722</ele>
        <time>2021-10-25T18:19:17.169Z</time>
      </trkpt>
      <trkpt lat="49.49593" lon="-1.78348">
        <ele>83.66945</ele>
        <time>2021-10-25T18:19:40.588Z</time>
      </trkpt>
      <trkpt lat="49.497" lon="-1.78301">
        <ele>82.290577</ele>
        <time>2021-10-25T18:20:05.961Z</time>
      </trkpt>
      <trkpt lat="49.49785" lon="-1.78265">
        <ele>82.419507</ele>
        <time>2021-10-25T18:20:27.156Z</time>
      </trkpt>
      <trkpt lat="49.4988" lon="-1.78227">
        <ele>83.271999</ele>
        <time>2021-10-25T18:20:51.690Z</time>
      </trkpt>
      <trkpt lat="49.49889" lon="-1.78224">
        <ele>83.353067</ele>
        <time>2021-10-25T18:20:54.141Z</time>
      </trkpt>
      <trkpt lat="49.49973" lon="-1.7824">
        <ele>84.124627</ele>
        <time>2021-10-25T18:21:15.776Z</time>
      </trkpt>
      <trkpt lat="49.50036" lon="-1.78299">
        <ele>84.800709</ele>
        <time>2021-10-25T18:21:34.280Z</time>
      </trkpt>
      <trkpt lat="49.50066" lon="-1.78314">
        <ele>85.093033</ele>
        <time>2021-10-25T18:21:41.925Z</time>
      </trkpt>
      <trkpt lat="49.50136" lon="-1.78321">
        <ele>83.673961</ele>
        <time>2021-10-25T18:21:58.174Z</time>
      </trkpt>
      <trkpt lat="49.50218" lon="-1.78311">
        <ele>81.865551</ele>
        <time>2021-10-25T18:22:15.454Z</time>
      </trkpt>
      <trkpt lat="49.5035" lon="-1.78321">
        <ele>77.299456</ele>
        <time>2021-10-25T18:22:42.067Z</time>
      </trkpt>
      <trkpt lat="49.50446" lon="-1.78303">
        <ele>73.681983</ele>
        <time>2021-10-25T18:23:01.256Z</time>
      </trkpt>
      <trkpt lat="49.50649" lon="-1.7828">
        <ele>68.02896</ele>
        <time>2021-10-25T18:23:43.151Z</time>
      </trkpt>
      <trkpt lat="49.50683" lon="-1.7829">
        <ele>67.783796</ele>
        <time>2021-10-25T18:23:51.123Z</time>
      </trkpt>
      <trkpt lat="49.50711" lon="-1.78275">
        <ele>67.575325</ele>
        <time>2021-10-25T18:23:58.201Z</time>
      </trkpt>
      <trkpt lat="49.50735" lon="-1.78275">
        <ele>67.407138</ele>
        <time>2021-10-25T18:24:03.952Z</time>
      </trkpt>
      <trkpt lat="49.50788" lon="-1.78232">
        <ele>67.274852</ele>
        <time>2021-10-25T18:24:18.931Z</time>
      </trkpt>
      <trkpt lat="49.50808" lon="-1.78212">
        <ele>67.913179</ele>
        <time>2021-10-25T18:24:25.049Z</time>
      </trkpt>
      <trkpt lat="49.50834" lon="-1.78322">
        <ele>69.939061</ele>
        <time>2021-10-25T18:24:39.770Z</time>
      </trkpt>
      <trkpt lat="49.5086" lon="-1.78413">
        <ele>71.64379</ele>
        <time>2021-10-25T18:24:53.183Z</time>
      </trkpt>
      <trkpt lat="49.50871" lon="-1.78514">
        <ele>73.03297</ele>
        <time>2021-10-25T18:25:06.657Z</time>
      </trkpt>
      <trkpt lat="49.50885" lon="-1.78588">
        <ele>74.037734</ele>
        <time>2021-10-25T18:25:16.051Z</time>
      </trkpt>
      <trkpt lat="49.50884" lon="-1.78601">
        <ele>74.212583</ele>
        <time>2021-10-25T18:25:17.596Z</time>
      </trkpt>
      <trkpt lat="49.50872" lon="-1.78656">
        <ele>74.968746</ele>
        <time>2021-10-25T18:25:24.102Z</time>
      </trkpt>
      <trkpt lat="49.50872" lon="-1.78676">
        <ele>75.236807</ele>
        <time>2021-10-25T18:25:26.290Z</time>
      </trkpt>
      <trkpt lat="49.50843" lon="-1.78815">
        <ele>74.822458</ele>
        <time>2021-10-25T18:25:41.282Z</time>
      </trkpt>
      <trkpt lat="49.5083" lon="-1.78914">
        <ele>74.313883</ele>
        <time>2021-10-25T18:25:56.056Z</time>
      </trkpt>
      <trkpt lat="49.50815" lon="-1.79046">
        <ele>73.886655</ele>
        <time>2021-10-25T18:26:15.705Z</time>
      </trkpt>
      <trkpt lat="49.50816" lon="-1.79103">
        <ele>73.759698</ele>
        <time>2021-10-25T18:26:24.445Z</time>
      </trkpt>
      <trkpt lat="49.50823" lon="-1.79142">
        <ele>73.668342</ele>
        <time>2021-10-25T18:26:30.841Z</time>
      </trkpt>
      <trkpt lat="49.50829" lon="-1.79149">
        <ele>73.643443</ele>
        <time>2021-10-25T18:26:32.631Z</time>
      </trkpt>
      <trkpt lat="49.50831" lon="-1.7915">
        <ele>73.635806</ele>
        <time>2021-10-25T18:26:33.195Z</time>
      </trkpt>
      <trkpt lat="49.50857" lon="-1.79152">
        <ele>73.544008</ele>
        <time>2021-10-25T18:26:39.802Z</time>
      </trkpt>
      <trkpt lat="49.50888" lon="-1.79143">
        <ele>73.591806</ele>
        <time>2021-10-25T18:26:47.519Z</time>
      </trkpt>
      <trkpt lat="49.50935" lon="-1.79174">
        <ele>74.563528</ele>
        <time>2021-10-25T18:27:00.575Z</time>
      </trkpt>
      <trkpt lat="49.50984" lon="-1.79199">
        <ele>75.540502</ele>
        <time>2021-10-25T18:27:22.791Z</time>
      </trkpt>
      <trkpt lat="49.51034" lon="-1.79224">
        <ele>76.517474</ele>
        <time>2021-10-25T18:27:45.007Z</time>
      </trkpt>
      <trkpt lat="49.51055" lon="-1.79053">
        <ele>78.835415</ele>
        <time>2021-10-25T18:28:06.408Z</time>
      </trkpt>
      <trkpt lat="49.51083" lon="-1.78916">
        <ele>80.76063</ele>
        <time>2021-10-25T18:28:23.476Z</time>
      </trkpt>
      <trkpt lat="49.51102" lon="-1.78837">
        <ele>81.90828</ele>
        <time>2021-10-25T18:28:33.571Z</time>
      </trkpt>
      <trkpt lat="49.51122" lon="-1.7884">
        <ele>82.32715</ele>
        <time>2021-10-25T18:28:38.659Z</time>
      </trkpt>
      <trkpt lat="49.51135" lon="-1.78841">
        <ele>82.606435</ele>
        <time>2021-10-25T18:28:42.053Z</time>
      </trkpt>
      <trkpt lat="49.5125" lon="-1.78919">
        <ele>85.121461</ele>
        <time>2021-10-25T18:29:14.312Z</time>
      </trkpt>
      <trkpt lat="49.51294" lon="-1.78965">
        <ele>86.081898</ele>
        <time>2021-10-25T18:29:27.918Z</time>
      </trkpt>
      <trkpt lat="49.51378" lon="-1.79069">
        <ele>87.732076</ele>
        <time>2021-10-25T18:29:55.105Z</time>
      </trkpt>
      <trkpt lat="49.51396" lon="-1.79083">
        <ele>87.841127</ele>
        <time>2021-10-25T18:30:00.254Z</time>
      </trkpt>
      <trkpt lat="49.51397" lon="-1.7909">
        <ele>87.863515</ele>
        <time>2021-10-25T18:30:00.924Z</time>
      </trkpt>
      <trkpt lat="49.51396" lon="-1.79083">
        <ele>87.885904</ele>
        <time>2021-10-25T18:30:01.634Z</time>
      </trkpt>
      <trkpt lat="49.51388" lon="-1.79026">
        <ele>88.088915</ele>
        <time>2021-10-25T18:30:07.834Z</time>
      </trkpt>
      <trkpt lat="49.51362" lon="-1.78919">
        <ele>88.477831</ele>
        <time>2021-10-25T18:30:19.597Z</time>
      </trkpt>
      <trkpt lat="49.51237" lon="-1.78463">
        <ele>87.878027</ele>
        <time>2021-10-25T18:31:06.721Z</time>
      </trkpt>
      <trkpt lat="49.51226" lon="-1.78406">
        <ele>87.812256</ele>
        <time>2021-10-25T18:31:12.815Z</time>
      </trkpt>
      <trkpt lat="49.51222" lon="-1.78381">
        <ele>87.790899</ele>
        <time>2021-10-25T18:31:15.388Z</time>
      </trkpt>
      <trkpt lat="49.5122" lon="-1.78366">
        <ele>87.815758</ele>
        <time>2021-10-25T18:31:16.954Z</time>
      </trkpt>
      <trkpt lat="49.51222" lon="-1.78381">
        <ele>87.840617</ele>
        <time>2021-10-25T18:31:18.520Z</time>
      </trkpt>
      <trkpt lat="49.51257" lon="-1.78377">
        <ele>87.930054</ele>
        <time>2021-10-25T18:31:27.085Z</time>
      </trkpt>
      <trkpt lat="49.5128" lon="-1.78389">
        <ele>87.992127</ele>
        <time>2021-10-25T18:31:32.982Z</time>
      </trkpt>
      <trkpt lat="49.51303" lon="-1.78435">
        <ele>88.088217</ele>
        <time>2021-10-25T18:31:42.209Z</time>
      </trkpt>
      <trkpt lat="49.51358" lon="-1.7852">
        <ele>88.264094</ele>
        <time>2021-10-25T18:32:01.269Z</time>
      </trkpt>
      <trkpt lat="49.51434" lon="-1.78607">
        <ele>88.382451</ele>
        <time>2021-10-25T18:32:24.155Z</time>
      </trkpt>
      <trkpt lat="49.51528" lon="-1.78692">
        <ele>88.451101</ele>
        <time>2021-10-25T18:32:50.343Z</time>
      </trkpt>
      <trkpt lat="49.51593" lon="-1.78727">
        <ele>88.422698</ele>
        <time>2021-10-25T18:33:07.049Z</time>
      </trkpt>
      <trkpt lat="49.5162" lon="-1.7876">
        <ele>88.408396</ele>
        <time>2021-10-25T18:33:15.394Z</time>
      </trkpt>
      <trkpt lat="49.51694" lon="-1.78838">
        <ele>88.029708</ele>
        <time>2021-10-25T18:33:36.691Z</time>
      </trkpt>
      <trkpt lat="49.51699" lon="-1.78887">
        <ele>87.810086</ele>
        <time>2021-10-25T18:33:41.384Z</time>
      </trkpt>
      <trkpt lat="49.51787" lon="-1.78964">
        <ele>87.153194</ele>
        <time>2021-10-25T18:34:05.332Z</time>
      </trkpt>
      <trkpt lat="49.51785" lon="-1.78975">
        <ele>87.146588</ele>
        <time>2021-10-25T18:34:06.546Z</time>
      </trkpt>
      <trkpt lat="49.51787" lon="-1.78964">
        <ele>87.139982</ele>
        <time>2021-10-25T18:34:07.512Z</time>
      </trkpt>
      <trkpt lat="49.5181" lon="-1.7899">
        <ele>87.115459</ele>
        <time>2021-10-25T18:34:14.236Z</time>
      </trkpt>
      <trkpt lat="49.51849" lon="-1.79029">
        <ele>87.075084</ele>
        <time>2021-10-25T18:34:25.250Z</time>
      </trkpt>
      <trkpt lat="49.51896" lon="-1.79066">
        <ele>87.028795</ele>
        <time>2021-10-25T18:34:38.161Z</time>
      </trkpt>
      <trkpt lat="49.5196" lon="-1.79159">
        <ele>87.650048</ele>
        <time>2021-10-25T18:35:00.197Z</time>
      </trkpt>
      <trkpt lat="49.52016" lon="-1.79277">
        <ele>88.715759</ele>
        <time>2021-10-25T18:35:24.182Z</time>
      </trkpt>
      <trkpt lat="49.52034" lon="-1.79324">
        <ele>89.069855</ele>
        <time>2021-10-25T18:35:33.040Z</time>
      </trkpt>
      <trkpt lat="49.52049" lon="-1.79457">
        <ele>89.604685</ele>
        <time>2021-10-25T18:35:54.753Z</time>
      </trkpt>
      <trkpt lat="49.52061" lon="-1.79505">
        <ele>89.809336</ele>
        <time>2021-10-25T18:36:02.948Z</time>
      </trkpt>
      <trkpt lat="49.52101" lon="-1.79436">
        <ele>90.116996</ele>
        <time>2021-10-25T18:36:17.530Z</time>
      </trkpt>
      <trkpt lat="49.52181" lon="-1.79301">
        <ele>90.071507</ele>
        <time>2021-10-25T18:36:46.009Z</time>
      </trkpt>
      <trkpt lat="49.52271" lon="-1.79194">
        <ele>89.623774</ele>
        <time>2021-10-25T18:37:13.286Z</time>
      </trkpt>
      <trkpt lat="49.52312" lon="-1.79153">
        <ele>89.281995</ele>
        <time>2021-10-25T18:37:25.126Z</time>
      </trkpt>
      <trkpt lat="49.52431" lon="-1.78988">
        <ele>86.517143</ele>
        <time>2021-10-25T18:38:01.074Z</time>
      </trkpt>
      <trkpt lat="49.52434" lon="-1.78984">
        <ele>86.419023</ele>
        <time>2021-10-25T18:38:01.750Z</time>
      </trkpt>
      <trkpt lat="49.52466" lon="-1.78994">
        <ele>85.594759</ele>
        <time>2021-10-25T18:38:08.715Z</time>
      </trkpt>
      <trkpt lat="49.52532" lon="-1.78975">
        <ele>83.774295</ele>
        <time>2021-10-25T18:38:22.358Z</time>
      </trkpt>
      <trkpt lat="49.52547" lon="-1.78971">
        <ele>83.249718</ele>
        <time>2021-10-25T18:38:25.272Z</time>
      </trkpt>
      <trkpt lat="49.52623" lon="-1.78938">
        <ele>80.497285</ele>
        <time>2021-10-25T18:38:41.549Z</time>
      </trkpt>
      <trkpt lat="49.52703" lon="-1.7891">
        <ele>77.427331</ele>
        <time>2021-10-25T18:38:58.380Z</time>
      </trkpt>
      <trkpt lat="49.52789" lon="-1.78882">
        <ele>72.675411</ele>
        <time>2021-10-25T18:39:16.165Z</time>
      </trkpt>
      <trkpt lat="49.52872" lon="-1.78836">
        <ele>67.747624</ele>
        <time>2021-10-25T18:39:31.946Z</time>
      </trkpt>
      <trkpt lat="49.52875" lon="-1.78818">
        <ele>66.84317</ele>
        <time>2021-10-25T18:39:34.131Z</time>
      </trkpt>
      <trkpt lat="49.52866" lon="-1.7874">
        <ele>62.990828</ele>
        <time>2021-10-25T18:39:43.521Z</time>
      </trkpt>
      <trkpt lat="49.52864" lon="-1.7873">
        <ele>62.505965</ele>
        <time>2021-10-25T18:39:44.562Z</time>
      </trkpt>
      <trkpt lat="49.52877" lon="-1.78735">
        <ele>61.523884</ele>
        <time>2021-10-25T18:39:46.907Z</time>
      </trkpt>
      <trkpt lat="49.52904" lon="-1.78735">
        <ele>59.493686</ele>
        <time>2021-10-25T18:39:51.743Z</time>
      </trkpt>
      <trkpt lat="49.53011" lon="-1.78702">
        <ele>54.116164</ele>
        <time>2021-10-25T18:40:11.803Z</time>
      </trkpt>
      <trkpt lat="49.53024" lon="-1.78713">
        <ele>53.8901</ele>
        <time>2021-10-25T18:40:14.601Z</time>
      </trkpt>
      <trkpt lat="49.53041" lon="-1.78696">
        <ele>53.565813</ele>
        <time>2021-10-25T18:40:19.656Z</time>
      </trkpt>
      <trkpt lat="49.53064" lon="-1.78675">
        <ele>53.151858</ele>
        <time>2021-10-25T18:40:25.909Z</time>
      </trkpt>
      <trkpt lat="49.53072" lon="-1.78668">
        <ele>52.999972</ele>
        <time>2021-10-25T18:40:28.020Z</time>
      </trkpt>
      <trkpt lat="49.53087" lon="-1.78647">
        <ele>52.688152</ele>
        <time>2021-10-25T18:40:31.701Z</time>
      </trkpt>
      <trkpt lat="49.53099" lon="-1.78639">
        <ele>52.475471</ele>
        <time>2021-10-25T18:40:34.881Z</time>
      </trkpt>
      <trkpt lat="49.53129" lon="-1.78632">
        <ele>52.105956</ele>
        <time>2021-10-25T18:40:41.345Z</time>
      </trkpt>
      <trkpt lat="49.53143" lon="-1.78634">
        <ele>52.707261</ele>
        <time>2021-10-25T18:40:44.744Z</time>
      </trkpt>
      <trkpt lat="49.53144" lon="-1.78656">
        <ele>53.289557</ele>
        <time>2021-10-25T18:40:47.004Z</time>
      </trkpt>
      <trkpt lat="49.53151" lon="-1.78657">
        <ele>53.580285</ele>
        <time>2021-10-25T18:40:49.095Z</time>
      </trkpt>
      <trkpt lat="49.53178" lon="-1.78655">
        <ele>54.747907</ele>
        <time>2021-10-25T18:40:56.519Z</time>
      </trkpt>
      <trkpt lat="49.53205" lon="-1.78641">
        <ele>55.937066</ele>
        <time>2021-10-25T18:41:04.824Z</time>
      </trkpt>
      <trkpt lat="49.53261" lon="-1.78632">
        <ele>58.325401</ele>
        <time>2021-10-25T18:41:20.963Z</time>
      </trkpt>
      <trkpt lat="49.53269" lon="-1.7864">
        <ele>58.754504</ele>
        <time>2021-10-25T18:41:24.011Z</time>
      </trkpt>
      <trkpt lat="49.53283" lon="-1.78607">
        <ele>59.824104</ele>
        <time>2021-10-25T18:41:35.044Z</time>
      </trkpt>
      <trkpt lat="49.53301" lon="-1.78609">
        <ele>60.485481</ele>
        <time>2021-10-25T18:41:40.103Z</time>
      </trkpt>
      <trkpt lat="49.53385" lon="-1.78541">
        <ele>64.011269</ele>
        <time>2021-10-25T18:42:05.946Z</time>
      </trkpt>
      <trkpt lat="49.53456" lon="-1.78457">
        <ele>67.014943</ele>
        <time>2021-10-25T18:42:29.040Z</time>
      </trkpt>
      <trkpt lat="49.53529" lon="-1.78355">
        <ele>69.575022</ele>
        <time>2021-10-25T18:42:54.522Z</time>
      </trkpt>
      <trkpt lat="49.53571" lon="-1.78334">
        <ele>70.718454</ele>
        <time>2021-10-25T18:43:05.907Z</time>
      </trkpt>
      <trkpt lat="49.53598" lon="-1.78307">
        <ele>71.724983</ele>
        <time>2021-10-25T18:43:14.369Z</time>
      </trkpt>
      <trkpt lat="49.53622" lon="-1.78288">
        <ele>72.641059</ele>
        <time>2021-10-25T18:43:21.566Z</time>
      </trkpt>
      <trkpt lat="49.53696" lon="-1.78274">
        <ele>75.146237</ele>
        <time>2021-10-25T18:43:41.415Z</time>
      </trkpt>
      <trkpt lat="49.53733" lon="-1.78271">
        <ele>76.401042</ele>
        <time>2021-10-25T18:43:51.458Z</time>
      </trkpt>
      <trkpt lat="49.53806" lon="-1.78249">
        <ele>79.118806</ele>
        <time>2021-10-25T18:44:11.354Z</time>
      </trkpt>
      <trkpt lat="49.53925" lon="-1.78234">
        <ele>83.684232</ele>
        <time>2021-10-25T18:44:44.056Z</time>
      </trkpt>
      <trkpt lat="49.54047" lon="-1.78261">
        <ele>87.526259</ele>
        <time>2021-10-25T18:45:16.644Z</time>
      </trkpt>
      <trkpt lat="49.54098" lon="-1.78273">
        <ele>89.142189</ele>
        <time>2021-10-25T18:45:30.214Z</time>
      </trkpt>
      <trkpt lat="49.54223" lon="-1.78264">
        <ele>91.52009</ele>
        <time>2021-10-25T18:46:02.290Z</time>
      </trkpt>
      <trkpt lat="49.54307" lon="-1.7829">
        <ele>92.797043</ele>
        <time>2021-10-25T18:46:23.759Z</time>
      </trkpt>
      <trkpt lat="49.54411" lon="-1.78303">
        <ele>93.394163</ele>
        <time>2021-10-25T18:46:49.590Z</time>
      </trkpt>
      <trkpt lat="49.54447" lon="-1.78272">
        <ele>93.625981</ele>
        <time>2021-10-25T18:46:59.396Z</time>
      </trkpt>
      <trkpt lat="49.54452" lon="-1.7816">
        <ele>94.198097</ele>
        <time>2021-10-25T18:47:17.047Z</time>
      </trkpt>
      <trkpt lat="49.54445" lon="-1.7809">
        <ele>94.585386</ele>
        <time>2021-10-25T18:47:28.425Z</time>
      </trkpt>
      <trkpt lat="49.54452" lon="-1.7816">
        <ele>94.972674</ele>
        <time>2021-10-25T18:47:39.973Z</time>
      </trkpt>
      <trkpt lat="49.54447" lon="-1.78272">
        <ele>96.395862</ele>
        <time>2021-10-25T18:47:58.500Z</time>
      </trkpt>
      <trkpt lat="49.54488" lon="-1.78264">
        <ele>97.526421</ele>
        <time>2021-10-25T18:48:09.367Z</time>
      </trkpt>
      <trkpt lat="49.54581" lon="-1.78137">
        <ele>101.057155</ele>
        <time>2021-10-25T18:48:42.460Z</time>
      </trkpt>
      <trkpt lat="49.54602" lon="-1.78146">
        <ele>101.737449</ele>
        <time>2021-10-25T18:48:46.854Z</time>
      </trkpt>
      <trkpt lat="49.54645" lon="-1.78002">
        <ele>105.002971</ele>
        <time>2021-10-25T18:49:08.005Z</time>
      </trkpt>
      <trkpt lat="49.54679" lon="-1.77902">
        <ele>107.367526</ele>
        <time>2021-10-25T18:49:23.078Z</time>
      </trkpt>
      <trkpt lat="49.54694" lon="-1.7777">
        <ele>110.220436</ele>
        <time>2021-10-25T18:49:41.133Z</time>
      </trkpt>
      <trkpt lat="49.54711" lon="-1.77698">
        <ele>111.828846</ele>
        <time>2021-10-25T18:49:51.536Z</time>
      </trkpt>
      <trkpt lat="49.54749" lon="-1.77609">
        <ele>114.032674</ele>
        <time>2021-10-25T18:50:06.177Z</time>
      </trkpt>
      <trkpt lat="49.5475" lon="-1.77589">
        <ele>114.449193</ele>
        <time>2021-10-25T18:50:08.893Z</time>
      </trkpt>
      <trkpt lat="49.54779" lon="-1.775">
        <ele>116.49384</ele>
        <time>2021-10-25T18:50:22.147Z</time>
      </trkpt>
      <trkpt lat="49.5482" lon="-1.77426">
        <ele>118.230041</ele>
        <time>2021-10-25T18:50:38.457Z</time>
      </trkpt>
      <trkpt lat="49.54859" lon="-1.77365">
        <ele>119.58374</ele>
        <time>2021-10-25T18:50:52.821Z</time>
      </trkpt>
      <trkpt lat="49.54946" lon="-1.77258">
        <ele>122.393471</ele>
        <time>2021-10-25T18:51:21.506Z</time>
      </trkpt>
      <trkpt lat="49.55001" lon="-1.77197">
        <ele>124.339822</ele>
        <time>2021-10-25T18:51:39.004Z</time>
      </trkpt>
      <trkpt lat="49.55012" lon="-1.77185">
        <ele>124.736121</ele>
        <time>2021-10-25T18:51:42.658Z</time>
      </trkpt>
      <trkpt lat="49.55015" lon="-1.77182">
        <ele>124.845537</ele>
        <time>2021-10-25T18:51:43.698Z</time>
      </trkpt>
      <trkpt lat="49.55062" lon="-1.77145">
        <ele>126.372077</ele>
        <time>2021-10-25T18:51:57.568Z</time>
      </trkpt>
      <trkpt lat="49.5518" lon="-1.77092">
        <ele>130.136866</ele>
        <time>2021-10-25T18:52:30.352Z</time>
      </trkpt>
      <trkpt lat="49.55245" lon="-1.77027">
        <ele>132.586242</ele>
        <time>2021-10-25T18:52:51.172Z</time>
      </trkpt>
      <trkpt lat="49.55357" lon="-1.7698">
        <ele>131.427723</ele>
        <time>2021-10-25T18:53:19.858Z</time>
      </trkpt>
      <trkpt lat="49.5541" lon="-1.76974">
        <ele>130.896837</ele>
        <time>2021-10-25T18:53:30.415Z</time>
      </trkpt>
      <trkpt lat="49.55402" lon="-1.76914">
        <ele>128.81951</ele>
        <time>2021-10-25T18:53:34.668Z</time>
      </trkpt>
      <trkpt lat="49.55398" lon="-1.76892">
        <ele>127.822598</ele>
        <time>2021-10-25T18:53:36.349Z</time>
      </trkpt>
      <trkpt lat="49.55396" lon="-1.76888">
        <ele>127.600649</ele>
        <time>2021-10-25T18:53:36.648Z</time>
      </trkpt>
      <trkpt lat="49.554" lon="-1.76861">
        <ele>126.432054</ele>
        <time>2021-10-25T18:53:39.882Z</time>
      </trkpt>
      <trkpt lat="49.55461" lon="-1.76608">
        <ele>114.832597</ele>
        <time>2021-10-25T18:54:11.312Z</time>
      </trkpt>
      <trkpt lat="49.5541" lon="-1.76335">
        <ele>104.291157</ele>
        <time>2021-10-25T18:54:45.849Z</time>
      </trkpt>
      <trkpt lat="49.55418" lon="-1.76281">
        <ele>102.753803</ele>
        <time>2021-10-25T18:54:52.877Z</time>
      </trkpt>
      <trkpt lat="49.55469" lon="-1.75957">
        <ele>96.189837</ele>
        <time>2021-10-25T18:55:38.589Z</time>
      </trkpt>
      <trkpt lat="49.55499" lon="-1.75846">
        <ele>94.416457</ele>
        <time>2021-10-25T18:55:56.525Z</time>
      </trkpt>
      <trkpt lat="49.55534" lon="-1.75718">
        <ele>92.43623</ele>
        <time>2021-10-25T18:56:16.495Z</time>
      </trkpt>
      <trkpt lat="49.55369" lon="-1.75855">
        <ele>87.076731</ele>
        <time>2021-10-25T18:56:55.338Z</time>
      </trkpt>
      <trkpt lat="49.5534" lon="-1.75887">
        <ele>85.959582</ele>
        <time>2021-10-25T18:57:02.870Z</time>
      </trkpt>
      <trkpt lat="49.55277" lon="-1.75949">
        <ele>83.341345</ele>
        <time>2021-10-25T18:57:18.121Z</time>
      </trkpt>
      <trkpt lat="49.55218" lon="-1.75999">
        <ele>80.924128</ele>
        <time>2021-10-25T18:57:31.832Z</time>
      </trkpt>
      <trkpt lat="49.55171" lon="-1.75898">
        <ele>77.79377</ele>
        <time>2021-10-25T18:58:06.391Z</time>
      </trkpt>
      <trkpt lat="49.55125" lon="-1.75796">
        <ele>74.301187</ele>
        <time>2021-10-25T18:58:40.957Z</time>
      </trkpt>
      <trkpt lat="49.55078" lon="-1.75694">
        <ele>70.937928</ele>
        <time>2021-10-25T18:59:15.530Z</time>
      </trkpt>
      <trkpt lat="49.55032" lon="-1.75593">
        <ele>68.176988</ele>
        <time>2021-10-25T18:59:50.100Z</time>
      </trkpt>
      <trkpt lat="49.54985" lon="-1.75491">
        <ele>65.414058</ele>
        <time>2021-10-25T19:00:24.650Z</time>
      </trkpt>
      <trkpt lat="49.54938" lon="-1.75389">
        <ele>64.722045</ele>
        <time>2021-10-25T19:00:59.191Z</time>
      </trkpt>
      <trkpt lat="49.54892" lon="-1.75287">
        <ele>64.125785</ele>
        <time>2021-10-25T19:01:33.732Z</time>
      </trkpt>
      <trkpt lat="49.54929" lon="-1.75272">
        <ele>63.646958</ele>
        <time>2021-10-25T19:01:42.718Z</time>
      </trkpt>
      <trkpt lat="49.54997" lon="-1.75271">
        <ele>62.300373</ele>
        <time>2021-10-25T19:01:58.832Z</time>
      </trkpt>
      <trkpt lat="49.55023" lon="-1.7531">
        <ele>61.594577</ele>
        <time>2021-10-25T19:02:06.494Z</time>
      </trkpt>
      <trkpt lat="49.55047" lon="-1.75342">
        <ele>60.957043</ele>
        <time>2021-10-25T19:02:12.958Z</time>
      </trkpt>
      <trkpt lat="49.55067" lon="-1.75316">
        <ele>60.444993</ele>
        <time>2021-10-25T19:02:18.215Z</time>
      </trkpt>
      <trkpt lat="49.55111" lon="-1.75268">
        <ele>59.379489</ele>
        <time>2021-10-25T19:02:29.438Z</time>
      </trkpt>
      <trkpt lat="49.55205" lon="-1.75011">
        <ele>56.30397</ele>
        <time>2021-10-25T19:03:13.055Z</time>
      </trkpt>
      <trkpt lat="49.55244" lon="-1.74955">
        <ele>55.824668</ele>
        <time>2021-10-25T19:03:25.714Z</time>
      </trkpt>
      <trkpt lat="49.55423" lon="-1.74915">
        <ele>54.761151</ele>
        <time>2021-10-25T19:04:08.992Z</time>
      </trkpt>
      <trkpt lat="49.55452" lon="-1.74899">
        <ele>54.631446</ele>
        <time>2021-10-25T19:04:16.415Z</time>
      </trkpt>
      <trkpt lat="49.55465" lon="-1.74889">
        <ele>54.571292</ele>
        <time>2021-10-25T19:04:18.607Z</time>
      </trkpt>
      <trkpt lat="49.55496" lon="-1.74857">
        <ele>54.41062</ele>
        <time>2021-10-25T19:04:24.166Z</time>
      </trkpt>
      <trkpt lat="49.55563" lon="-1.74768">
        <ele>54.010541</ele>
        <time>2021-10-25T19:04:36.937Z</time>
      </trkpt>
      <trkpt lat="49.5558" lon="-1.74742">
        <ele>53.904617</ele>
        <time>2021-10-25T19:04:42.569Z</time>
      </trkpt>
      <trkpt lat="49.55598" lon="-1.74696">
        <ele>53.748039</ele>
        <time>2021-10-25T19:04:50.882Z</time>
      </trkpt>
      <trkpt lat="49.55612" lon="-1.74689">
        <ele>53.688783</ele>
        <time>2021-10-25T19:04:54.373Z</time>
      </trkpt>
      <trkpt lat="49.55632" lon="-1.74681">
        <ele>53.639268</ele>
        <time>2021-10-25T19:04:59.271Z</time>
      </trkpt>
      <trkpt lat="49.55671" lon="-1.74661">
        <ele>53.541245</ele>
        <time>2021-10-25T19:05:09.130Z</time>
      </trkpt>
      <trkpt lat="49.55675" lon="-1.74663">
        <ele>53.532278</ele>
        <time>2021-10-25T19:05:10.047Z</time>
      </trkpt>
      <trkpt lat="49.55709" lon="-1.74684">
        <ele>53.444833</ele>
        <time>2021-10-25T19:05:18.852Z</time>
      </trkpt>
      <trkpt lat="49.55753" lon="-1.74666">
        <ele>53.337109</ele>
        <time>2021-10-25T19:05:29.752Z</time>
      </trkpt>
      <trkpt lat="49.5576" lon="-1.74671">
        <ele>53.318956</ele>
        <time>2021-10-25T19:05:31.551Z</time>
      </trkpt>
      <trkpt lat="49.55809" lon="-1.74676">
        <ele>53.661352</ele>
        <time>2021-10-25T19:05:43.808Z</time>
      </trkpt>
      <trkpt lat="49.55868" lon="-1.74755">
        <ele>54.715441</ele>
        <time>2021-10-25T19:06:03.336Z</time>
      </trkpt>
      <trkpt lat="49.55902" lon="-1.74749">
        <ele>55.183761</ele>
        <time>2021-10-25T19:06:12.115Z</time>
      </trkpt>
      <trkpt lat="49.55944" lon="-1.74724">
        <ele>55.85787</ele>
        <time>2021-10-25T19:06:23.695Z</time>
      </trkpt>
      <trkpt lat="49.55996" lon="-1.74717">
        <ele>57.065188</ele>
        <time>2021-10-25T19:06:36.996Z</time>
      </trkpt>
      <trkpt lat="49.56267" lon="-1.74632">
        <ele>63.445487</ele>
        <time>2021-10-25T19:07:48.409Z</time>
      </trkpt>
      <trkpt lat="49.56399" lon="-1.74656">
        <ele>64.829176</ele>
        <time>2021-10-25T19:08:22.059Z</time>
      </trkpt>
      <trkpt lat="49.56469" lon="-1.74678">
        <ele>65.369553</ele>
        <time>2021-10-25T19:08:39.354Z</time>
      </trkpt>
      <trkpt lat="49.56488" lon="-1.74703">
        <ele>64.854691</ele>
        <time>2021-10-25T19:08:45.072Z</time>
      </trkpt>
      <trkpt lat="49.5649" lon="-1.74747">
        <ele>64.238811</ele>
        <time>2021-10-25T19:08:51.614Z</time>
      </trkpt>
      <trkpt lat="49.56517" lon="-1.74768">
        <ele>63.61279</ele>
        <time>2021-10-25T19:08:58.087Z</time>
      </trkpt>
      <trkpt lat="49.56546" lon="-1.74783">
        <ele>62.948788</ele>
        <time>2021-10-25T19:09:04.754Z</time>
      </trkpt>
      <trkpt lat="49.56545" lon="-1.74774">
        <ele>62.82167</ele>
        <time>2021-10-25T19:09:06.054Z</time>
      </trkpt>
      <trkpt lat="49.56544" lon="-1.74769">
        <ele>62.750937</ele>
        <time>2021-10-25T19:09:06.748Z</time>
      </trkpt>
      <trkpt lat="49.56546" lon="-1.74702">
        <ele>61.823296</ele>
        <time>2021-10-25T19:09:15.899Z</time>
      </trkpt>
      <trkpt lat="49.56563" lon="-1.74621">
        <ele>60.537019</ele>
        <time>2021-10-25T19:09:27.330Z</time>
      </trkpt>
      <trkpt lat="49.56578" lon="-1.74469">
        <ele>58.173676</ele>
        <time>2021-10-25T19:09:48.458Z</time>
      </trkpt>
      <trkpt lat="49.56589" lon="-1.7441">
        <ele>57.278981</ele>
        <time>2021-10-25T19:09:57.315Z</time>
      </trkpt>
      <trkpt lat="49.56588" lon="-1.74374">
        <ele>57.283335</ele>
        <time>2021-10-25T19:10:02.814Z</time>
      </trkpt>
      <trkpt lat="49.56573" lon="-1.74339">
        <ele>57.288322</ele>
        <time>2021-10-25T19:10:09.262Z</time>
      </trkpt>
      <trkpt lat="49.56554" lon="-1.74321">
        <ele>57.292335</ele>
        <time>2021-10-25T19:10:14.513Z</time>
      </trkpt>
      <trkpt lat="49.5649" lon="-1.74315">
        <ele>57.30411</ele>
        <time>2021-10-25T19:10:30.237Z</time>
      </trkpt>
      <trkpt lat="49.56462" lon="-1.74247">
        <ele>57.490748</ele>
        <time>2021-10-25T19:10:43.315Z</time>
      </trkpt>
      <trkpt lat="49.5647" lon="-1.74095">
        <ele>59.055823</ele>
        <time>2021-10-25T19:11:08.521Z</time>
      </trkpt>
      <trkpt lat="49.56499" lon="-1.73997">
        <ele>60.151819</ele>
        <time>2021-10-25T19:11:26.171Z</time>
      </trkpt>
      <trkpt lat="49.56505" lon="-1.73981">
        <ele>60.364252</ele>
        <time>2021-10-25T19:11:29.281Z</time>
      </trkpt>
      <trkpt lat="49.56523" lon="-1.73946">
        <ele>60.867927</ele>
        <time>2021-10-25T19:11:34.608Z</time>
      </trkpt>
      <trkpt lat="49.56588" lon="-1.73831">
        <ele>62.587936</ele>
        <time>2021-10-25T19:11:52.965Z</time>
      </trkpt>
      <trkpt lat="49.56608" lon="-1.73725">
        <ele>64.048927</ele>
        <time>2021-10-25T19:12:06.868Z</time>
      </trkpt>
      <trkpt lat="49.56613" lon="-1.73705">
        <ele>64.374016</ele>
        <time>2021-10-25T19:12:09.567Z</time>
      </trkpt>
      <trkpt lat="49.56628" lon="-1.73691">
        <ele>64.807418</ele>
        <time>2021-10-25T19:12:13.086Z</time>
      </trkpt>
      <trkpt lat="49.56656" lon="-1.73638">
        <ele>65.853621</ele>
        <time>2021-10-25T19:12:21.654Z</time>
      </trkpt>
      <trkpt lat="49.56673" lon="-1.73614">
        <ele>66.404427</ele>
        <time>2021-10-25T19:12:27.677Z</time>
      </trkpt>
      <trkpt lat="49.56716" lon="-1.73553">
        <ele>67.760361</ele>
        <time>2021-10-25T19:12:43.089Z</time>
      </trkpt>
      <trkpt lat="49.56773" lon="-1.73458">
        <ele>69.280189</ele>
        <time>2021-10-25T19:13:04.624Z</time>
      </trkpt>
      <trkpt lat="49.56835" lon="-1.73336">
        <ele>70.81021</ele>
        <time>2021-10-25T19:13:29.929Z</time>
      </trkpt>
      <trkpt lat="49.56912" lon="-1.73119">
        <ele>70.383045</ele>
        <time>2021-10-25T19:14:08.355Z</time>
      </trkpt>
      <trkpt lat="49.56927" lon="-1.73">
        <ele>70.368749</ele>
        <time>2021-10-25T19:14:25.233Z</time>
      </trkpt>
      <trkpt lat="49.56927" lon="-1.72922">
        <ele>70.368749</ele>
        <time>2021-10-25T19:14:35.864Z</time>
      </trkpt>
      <trkpt lat="49.56928" lon="-1.72863">
        <ele>70.368749</ele>
        <time>2021-10-25T19:14:43.873Z</time>
      </trkpt>
      <trkpt lat="49.56928" lon="-1.72834">
        <ele>70.368749</ele>
        <time>2021-10-25T19:14:47.806Z</time>
      </trkpt>
      <trkpt lat="49.56929" lon="-1.728">
        <ele>70.368749</ele>
        <time>2021-10-25T19:14:52.589Z</time>
      </trkpt>
      <trkpt lat="49.5693" lon="-1.72787">
        <ele>70.368749</ele>
        <time>2021-10-25T19:14:54.330Z</time>
      </trkpt>
      <trkpt lat="49.56932" lon="-1.7273">
        <ele>70.368749</ele>
        <time>2021-10-25T19:14:59.079Z</time>
      </trkpt>
    </trkseg>
  </trk>
</gpx>